Observation data for Lesley on 02/13/2018      Previous  Date  Next       Current Mesonet Observations  Soil Data  Daily Summary Page  Observations in Plain Language
KLE1 130600Z 08007KT M02/M10 A3032 RMK A01 T10201095  RH  056%=      5-min Rain = 0
KLE1 130601Z 08007KT M02/M10 A3032 RMK A01 T10201095  RH  056%=      5-min Rain = 0
KLE1 130602Z 08006KT M02/M10 A3032 RMK A01 T10201096  RH  056%=      5-min Rain = 0
KLE1 130603Z 08006KT M02/M10 A3032 RMK A01 T10201095  RH  056%=      5-min Rain = 0
KLE1 130604Z 08006KT M02/M10 A3032 RMK A01 T10201096  RH  056%=      5-min Rain = 0
KLE1 130605Z 08006KT M02/M10 A3032 RMK A01 T10201096  RH  056%=      5-min Rain = 0
KLE1 130606Z 08006KT M02/M10 A3032 RMK A01 T10201096  RH  056%=      5-min Rain = 0
KLE1 130607Z 08006KT M02/M10 A3032 RMK A01 T10201096  RH  056%=      5-min Rain = 0
KLE1 130608Z 08006KT M02/M10 A3033 RMK A01 T10201095  RH  056%=      5-min Rain = 0
KLE1 130609Z 08006KT M02/M10 A3033 RMK A01 T10201095  RH  056%=      5-min Rain = 0
KLE1 130610Z 07006KT M02/M10 A3033 RMK A01 T10201096  RH  056%=      5-min Rain = 0
KLE1 130611Z 07006KT M02/M10 A3033 RMK A01 T10201096  RH  056%=      5-min Rain = 0
KLE1 130612Z 07005KT M02/M10 A3033 RMK A01 T10201096  RH  056%=      5-min Rain = 0
KLE1 130613Z 07005KT M02/M10 A3033 RMK A01 T10211097  RH  056%=      5-min Rain = 0
KLE1 130614Z 07005KT M02/M10 A3033 RMK A01 T10211097  RH  056%=      5-min Rain = 0
KLE1 130615Z 08005KT M02/M10 A3033 RMK A01 T10211097  RH  056%=      5-min Rain = 0
KLE1 130616Z 08005KT M02/M10 A3033 RMK A01 T10211097  RH  056%=      5-min Rain = 0
KLE1 130617Z 08005KT M02/M10 A3033 RMK A01 T10201096  RH  056%=      5-min Rain = 0
KLE1 130618Z 08005KT M02/M10 A3033 RMK A01 T10191095  RH  056%=      5-min Rain = 0
KLE1 130619Z 08005KT M02/M10 A3033 RMK A01 T10191095  RH  056%=      5-min Rain = 0
KLE1 130620Z 08005KT M02/M10 A3033 RMK A01 T10181095  RH  056%=      5-min Rain = 0
KLE1 130621Z 08005KT M02/M10 A3033 RMK A01 T10181095  RH  056%=      5-min Rain = 0
KLE1 130622Z 08004KT M02/M10 A3033 RMK A01 T10181095  RH  056%=      5-min Rain = 0
KLE1 130623Z 08004KT M02/M10 A3033 RMK A01 T10191095  RH  056%=      5-min Rain = 0
KLE1 130624Z 08005KT M02/M10 A3033 RMK A01 T10191095  RH  056%=      5-min Rain = 0
KLE1 130625Z 07005KT M02/M10 A3033 RMK A01 T10191095  RH  056%=      5-min Rain = 0
KLE1 130626Z 07005KT M02/M10 A3033 RMK A01 T10201096  RH  056%=      5-min Rain = 0
KLE1 130627Z 07005KT M02/M10 A3033 RMK A01 T10201096  RH  056%=      5-min Rain = 0
KLE1 130628Z 07005KT M02/M10 A3033 RMK A01 T10211096  RH  056%=      5-min Rain = 0
KLE1 130629Z 07006KT M02/M10 A3033 RMK A01 T10211096  RH  056%=      5-min Rain = 0
KLE1 130630Z 07006KT M02/M10 A3033 RMK A01 T10211096  RH  057%=      5-min Rain = 0
KLE1 130631Z 07006KT M02/M10 A3033 RMK A01 T10221096  RH  057%=      5-min Rain = 0
KLE1 130632Z 07006KT M02/M10 A3033 RMK A01 T10221096  RH  057%=      5-min Rain = 0
KLE1 130633Z 08006KT M02/M10 A3033 RMK A01 T10231096  RH  057%=      5-min Rain = 0
KLE1 130634Z 08006KT M02/M10 A3033 RMK A01 T10231096  RH  057%=      5-min Rain = 0
KLE1 130635Z 08006KT M02/M10 A3033 RMK A01 T10231095  RH  058%=      5-min Rain = 0
KLE1 130636Z 08006KT M02/M10 A3033 RMK A01 T10231095  RH  058%=      5-min Rain = 0
KLE1 130637Z 08006KT M02/M10 A3033 RMK A01 T10231095  RH  058%=      5-min Rain = 0
KLE1 130638Z 08006KT M02/M10 A3033 RMK A01 T10231095  RH  058%=      5-min Rain = 0
KLE1 130639Z 08006KT M02/M10 A3033 RMK A01 T10241095  RH  058%=      5-min Rain = 0
KLE1 130640Z 08006KT M02/M10 A3033 RMK A01 T10241095  RH  058%=      5-min Rain = 0
KLE1 130641Z 08006KT M03/M10 A3033 RMK A01 T10251095  RH  058%=      5-min Rain = 0
KLE1 130642Z 07006KT M03/M10 A3033 RMK A01 T10251095  RH  058%=      5-min Rain = 0
KLE1 130643Z 07006KT M03/M10 A3033 RMK A01 T10251096  RH  058%=      5-min Rain = 0
KLE1 130644Z 07006KT M03/M10 A3033 RMK A01 T10261096  RH  058%=      5-min Rain = 0
KLE1 130645Z 08006KT M03/M10 A3033 RMK A01 T10261096  RH  059%=      5-min Rain = 0
KLE1 130646Z 08006KT M03/M10 A3033 RMK A01 T10271096  RH  059%=      5-min Rain = 0
KLE1 130647Z 08006KT M03/M10 A3033 RMK A01 T10281096  RH  059%=      5-min Rain = 0
KLE1 130648Z 08006KT M03/M10 A3033 RMK A01 T10281096  RH  059%=      5-min Rain = 0
KLE1 130649Z 08006KT M03/M10 A3033 RMK A01 T10281096  RH  060%=      5-min Rain = 0
KLE1 130650Z 08007KT M03/M10 A3033 RMK A01 T10281096  RH  060%=      5-min Rain = 0
KLE1 130651Z 08006KT M03/M10 A3033 RMK A01 T10281095  RH  060%=      5-min Rain = 0
KLE1 130652Z 08007KT M03/M10 A3033 RMK A01 T10291096  RH  060%=      5-min Rain = 0
KLE1 130653Z 08007KT M03/M10 A3033 RMK A01 T10291096  RH  060%=      5-min Rain = 0
KLE1 130654Z 08007KT M03/M10 A3033 RMK A01 T10291096  RH  060%=      5-min Rain = 0
KLE1 130655Z 08007KT M03/M10 A3033 RMK A01 T10301097  RH  060%=      5-min Rain = 0
KLE1 130656Z 08007KT M03/M10 A3032 RMK A01 T10311097  RH  060%=      5-min Rain = 0
KLE1 130657Z 08007KT M03/M10 A3032 RMK A01 T10311097  RH  061%=      5-min Rain = 0
KLE1 130658Z 09007KT M03/M10 A3032 RMK A01 T10321097  RH  061%=      5-min Rain = 0
KLE1 130659Z 09007KT M03/M10 A3032 RMK A01 T10331097  RH  061%=      5-min Rain = 0
KLE1 130700Z 09007KT M03/M10 A3032 RMK A01 T10331097  RH  061%=      5-min Rain = 0
KLE1 130701Z 09007KT M03/M10 A3032 RMK A01 T10331098  RH  061%=      5-min Rain = 0
KLE1 130702Z 09007KT M03/M10 A3032 RMK A01 T10341098  RH  061%=      5-min Rain = 0
KLE1 130703Z 08008KT M03/M10 A3032 RMK A01 T10341098  RH  061%=      5-min Rain = 0
KLE1 130704Z 08008KT M03/M10 A3032 RMK A01 T10341098  RH  061%=      5-min Rain = 0
KLE1 130705Z 08008KT M04/M10 A3032 RMK A01 T10351099  RH  061%=      5-min Rain = 0
KLE1 130706Z 08008KT M04/M10 A3032 RMK A01 T10361100  RH  061%=      5-min Rain = 0
KLE1 130707Z 08008KT M04/M10 A3032 RMK A01 T10361100  RH  061%=      5-min Rain = 0
KLE1 130708Z 08008KT M04/M10 A3032 RMK A01 T10371101  RH  061%=      5-min Rain = 0
KLE1 130709Z 08008KT M04/M10 A3032 RMK A01 T10381101  RH  062%=      5-min Rain = 0
KLE1 130710Z 08008KT M04/M10 A3032 RMK A01 T10381101  RH  062%=      5-min Rain = 0
KLE1 130711Z 09008KT M04/M10 A3032 RMK A01 T10381100  RH  062%=      5-min Rain = 0
KLE1 130712Z 09008KT M04/M10 A3032 RMK A01 T10381099  RH  063%=      5-min Rain = 0
KLE1 130713Z 09008KT M04/M10 A3032 RMK A01 T10381098  RH  063%=      5-min Rain = 0
KLE1 130714Z 09008KT M04/M10 A3032 RMK A01 T10371098  RH  063%=      5-min Rain = 0
KLE1 130715Z 10009KT M04/M10 A3032 RMK A01 T10371097  RH  063%=      5-min Rain = 0
KLE1 130716Z 10009KT M04/M10 A3031 RMK A01 T10361097  RH  063%=      5-min Rain = 0
KLE1 130717Z 10009KT M04/M10 A3031 RMK A01 T10361097  RH  063%=      5-min Rain = 0
KLE1 130718Z 10008KT M04/M10 A3031 RMK A01 T10361097  RH  063%=      5-min Rain = 0
KLE1 130719Z 09008KT M04/M10 A3031 RMK A01 T10361097  RH  063%=      5-min Rain = 0
KLE1 130720Z 09008KT M04/M10 A3031 RMK A01 T10371098  RH  062%=      5-min Rain = 0
KLE1 130721Z 09008KT M04/M10 A3031 RMK A01 T10381100  RH  062%=      5-min Rain = 0
KLE1 130722Z 09008KT M04/M10 A3031 RMK A01 T10391101  RH  062%=      5-min Rain = 0
KLE1 130723Z 08008KT M04/M10 A3031 RMK A01 T10401102  RH  062%=      5-min Rain = 0
KLE1 130724Z 08008KT M04/M10 A3031 RMK A01 T10421103  RH  062%=      5-min Rain = 0
KLE1 130725Z 08008KT M04/M10 A3031 RMK A01 T10431103  RH  063%=      5-min Rain = 0
KLE1 130726Z 09008KT M04/M10 A3031 RMK A01 T10431102  RH  063%=      5-min Rain = 0
KLE1 130727Z 09007KT M04/M10 A3031 RMK A01 T10431101  RH  064%=      5-min Rain = 0
KLE1 130728Z 09007KT M04/M10 A3031 RMK A01 T10421099  RH  064%=      5-min Rain = 0
KLE1 130729Z 10007KT M04/M10 A3031 RMK A01 T10411098  RH  064%=      5-min Rain = 0
KLE1 130730Z 10007KT M04/M10 A3031 RMK A01 T10401097  RH  064%=      5-min Rain = 0
KLE1 130731Z 10007KT M04/M10 A3031 RMK A01 T10401097  RH  064%=      5-min Rain = 0
KLE1 130732Z 10008KT M04/M10 A3031 RMK A01 T10381095  RH  065%=      5-min Rain = 0
KLE1 130733Z 10008KT M04/M09 A3031 RMK A01 T10371093  RH  065%=      5-min Rain = 0
KLE1 130734Z 10008KT M04/M09 A3031 RMK A01 T10361093  RH  065%=      5-min Rain = 0
KLE1 130735Z 09007KT M04/M09 A3031 RMK A01 T10361093  RH  065%=      5-min Rain = 0
KLE1 130736Z 09007KT M04/M09 A3031 RMK A01 T10361093  RH  064%=      5-min Rain = 0
KLE1 130737Z 09006KT M04/M09 A3031 RMK A01 T10361094  RH  064%=      5-min Rain = 0
KLE1 130738Z 08006KT M04/M10 A3031 RMK A01 T10371095  RH  064%=      5-min Rain = 0
KLE1 130739Z 08006KT M04/M10 A3032 RMK A01 T10371095  RH  064%=      5-min Rain = 0
KLE1 130740Z 08006KT M04/M10 A3032 RMK A01 T10371096  RH  064%=      5-min Rain = 0
KLE1 130741Z 09006KT M04/M10 A3032 RMK A01 T10381097  RH  064%=      5-min Rain = 0
KLE1 130742Z 09006KT M04/M10 A3032 RMK A01 T10391097  RH  064%=      5-min Rain = 0
KLE1 130743Z 09006KT M04/M10 A3032 RMK A01 T10391096  RH  065%=      5-min Rain = 0
KLE1 130744Z 10005KT M04/M10 A3032 RMK A01 T10391095  RH  065%=      5-min Rain = 0
KLE1 130745Z 10006KT M04/M09 A3032 RMK A01 T10381094  RH  065%=      5-min Rain = 0
KLE1 130746Z 10006KT M04/M09 A3032 RMK A01 T10371092  RH  066%=      5-min Rain = 0
KLE1 130747Z 10006KT M04/M09 A3032 RMK A01 T10361090  RH  066%=      5-min Rain = 0
KLE1 130748Z 10005KT M04/M09 A3032 RMK A01 T10351089  RH  066%=      5-min Rain = 0
KLE1 130749Z 09005KT M03/M09 A3032 RMK A01 T10341089  RH  066%=      5-min Rain = 0
KLE1 130750Z 09005KT M03/M09 A3032 RMK A01 T10341089  RH  066%=      5-min Rain = 0
KLE1 130751Z 07005KT M03/M09 A3032 RMK A01 T10341089  RH  066%=      5-min Rain = 0
KLE1 130752Z 07005KT M04/M09 A3032 RMK A01 T10351090  RH  065%=      5-min Rain = 0
KLE1 130753Z 06005KT M04/M09 A3032 RMK A01 T10361091  RH  065%=      5-min Rain = 0
KLE1 130754Z 06005KT M04/M09 A3032 RMK A01 T10361091  RH  066%=      5-min Rain = 0
KLE1 130755Z 07005KT M04/M09 A3032 RMK A01 T10371091  RH  066%=      5-min Rain = 0
KLE1 130756Z 07005KT M04/M09 A3032 RMK A01 T10361090  RH  066%=      5-min Rain = 0
KLE1 130757Z 08005KT M04/M09 A3032 RMK A01 T10361089  RH  067%=      5-min Rain = 0
KLE1 130758Z 08005KT M04/M09 A3032 RMK A01 T10361089  RH  067%=      5-min Rain = 0
KLE1 130759Z 09005KT M04/M09 A3032 RMK A01 T10351088  RH  067%=      5-min Rain = 0
KLE1 130800Z 09005KT M04/M09 A3032 RMK A01 T10351088  RH  067%=      5-min Rain = 0
KLE1 130801Z 09005KT M03/M09 A3032 RMK A01 T10341087  RH  066%=      5-min Rain = 0
KLE1 130802Z 09005KT M03/M09 A3032 RMK A01 T10341087  RH  066%=      5-min Rain = 0
KLE1 130803Z 09005KT M03/M09 A3032 RMK A01 T10331086  RH  066%=      5-min Rain = 0
KLE1 130804Z 09004KT M03/M09 A3032 RMK A01 T10321086  RH  066%=      5-min Rain = 0
KLE1 130805Z 08004KT M03/M09 A3032 RMK A01 T10321086  RH  066%=      5-min Rain = 0
KLE1 130806Z 07004KT M03/M09 A3033 RMK A01 T10311085  RH  066%=      5-min Rain = 0
KLE1 130807Z 07004KT M03/M09 A3033 RMK A01 T10311085  RH  066%=      5-min Rain = 0
KLE1 130808Z 07004KT M03/M09 A3033 RMK A01 T10301085  RH  066%=      5-min Rain = 0
KLE1 130809Z 07005KT M03/M09 A3033 RMK A01 T10301085  RH  066%=      5-min Rain = 0
KLE1 130810Z 07005KT M03/M09 A3033 RMK A01 T10301085  RH  065%=      5-min Rain = 0
KLE1 130811Z 08005KT M03/M09 A3032 RMK A01 T10301085  RH  065%=      5-min Rain = 0
KLE1 130812Z 08005KT M03/M09 A3032 RMK A01 T10301086  RH  065%=      5-min Rain = 0
KLE1 130813Z 08004KT M03/M09 A3032 RMK A01 T10301086  RH  065%=      5-min Rain = 0
KLE1 130814Z 08004KT M03/M09 A3032 RMK A01 T10301086  RH  066%=      5-min Rain = 0
KLE1 130815Z 09005KT M03/M09 A3032 RMK A01 T10301085  RH  066%=      5-min Rain = 0
KLE1 130816Z 09005KT M03/M09 A3032 RMK A01 T10301085  RH  066%=      5-min Rain = 0
KLE1 130817Z 09005KT M03/M08 A3032 RMK A01 T10291084  RH  066%=      5-min Rain = 0
KLE1 130818Z 08005KT M03/M08 A3032 RMK A01 T10291084  RH  066%=      5-min Rain = 0
KLE1 130819Z 08005KT M03/M08 A3032 RMK A01 T10291084  RH  066%=      5-min Rain = 0
KLE1 130820Z 07005KT M03/M09 A3032 RMK A01 T10291085  RH  066%=      5-min Rain = 0
KLE1 130821Z 07005KT M03/M09 A3032 RMK A01 T10301085  RH  066%=      5-min Rain = 0
KLE1 130822Z 06005KT M03/M09 A3032 RMK A01 T10311086  RH  066%=      5-min Rain = 0
KLE1 130823Z 07005KT M03/M09 A3032 RMK A01 T10321087  RH  066%=      5-min Rain = 0
KLE1 130824Z 07005KT M03/M09 A3032 RMK A01 T10331088  RH  066%=      5-min Rain = 0
KLE1 130825Z 07005KT M03/M09 A3032 RMK A01 T10341089  RH  066%=      5-min Rain = 0
KLE1 130826Z 07005KT M04/M09 A3032 RMK A01 T10351089  RH  066%=      5-min Rain = 0
KLE1 130827Z 08005KT M04/M09 A3032 RMK A01 T10361089  RH  067%=      5-min Rain = 0
KLE1 130828Z 08005KT M04/M09 A3031 RMK A01 T10361089  RH  067%=      5-min Rain = 0
KLE1 130829Z 08005KT M04/M09 A3031 RMK A01 T10361088  RH  067%=      5-min Rain = 0
KLE1 130830Z 08005KT M04/M09 A3031 RMK A01 T10361088  RH  067%=      5-min Rain = 0
KLE1 130831Z 08005KT M04/M09 A3031 RMK A01 T10351087  RH  068%=      5-min Rain = 0
KLE1 130832Z 08005KT M04/M09 A3031 RMK A01 T10351086  RH  068%=      5-min Rain = 0
KLE1 130833Z 09005KT M03/M09 A3031 RMK A01 T10341085  RH  068%=      5-min Rain = 0
KLE1 130834Z 09005KT M03/M09 A3031 RMK A01 T10341086  RH  067%=      5-min Rain = 0
KLE1 130835Z 08005KT M03/M09 A3031 RMK A01 T10341086  RH  067%=      5-min Rain = 0
KLE1 130836Z 08005KT M03/M09 A3031 RMK A01 T10341086  RH  067%=      5-min Rain = 0
KLE1 130837Z 08005KT M03/M09 A3031 RMK A01 T10341086  RH  067%=      5-min Rain = 0
KLE1 130838Z 08005KT M03/M09 A3031 RMK A01 T10341087  RH  067%=      5-min Rain = 0
KLE1 130839Z 08006KT M04/M09 A3031 RMK A01 T10351087  RH  067%=      5-min Rain = 0
KLE1 130840Z 08005KT M04/M09 A3031 RMK A01 T10361088  RH  067%=      5-min Rain = 0
KLE1 130841Z 09005KT M04/M09 A3031 RMK A01 T10371088  RH  067%=      5-min Rain = 0
KLE1 130842Z 08005KT M04/M09 A3031 RMK A01 T10371089  RH  067%=      5-min Rain = 0
KLE1 130843Z 08005KT M04/M09 A3031 RMK A01 T10381089  RH  068%=      5-min Rain = 0
KLE1 130844Z 09005KT M04/M09 A3031 RMK A01 T10391089  RH  068%=      5-min Rain = 0
KLE1 130845Z 08005KT M04/M09 A3031 RMK A01 T10391089  RH  068%=      5-min Rain = 0
KLE1 130846Z 09005KT M04/M09 A3031 RMK A01 T10391088  RH  069%=      5-min Rain = 0
KLE1 130847Z 08005KT M04/M09 A3031 RMK A01 T10391087  RH  069%=      5-min Rain = 0
KLE1 130848Z 08005KT M04/M09 A3031 RMK A01 T10391087  RH  069%=      5-min Rain = 0
KLE1 130849Z 07005KT M04/M09 A3031 RMK A01 T10371086  RH  069%=      5-min Rain = 0
KLE1 130850Z 07005KT M04/M09 A3031 RMK A01 T10371086  RH  069%=      5-min Rain = 0
KLE1 130851Z 06005KT M04/M09 A3031 RMK A01 T10371086  RH  069%=      5-min Rain = 0
KLE1 130852Z 06005KT M04/M09 A3031 RMK A01 T10371086  RH  069%=      5-min Rain = 0
KLE1 130853Z 05005KT M04/M09 A3031 RMK A01 T10371086  RH  069%=      5-min Rain = 0
KLE1 130854Z 05005KT M04/M09 A3032 RMK A01 T10371086  RH  069%=      5-min Rain = 0
KLE1 130855Z 05005KT M04/M09 A3032 RMK A01 T10371087  RH  069%=      5-min Rain = 0
KLE1 130856Z 05004KT M04/M09 A3032 RMK A01 T10371087  RH  069%=      5-min Rain = 0
KLE1 130857Z 05004KT M04/M09 A3031 RMK A01 T10381086  RH  069%=      5-min Rain = 0
KLE1 130858Z 05004KT M04/M09 A3031 RMK A01 T10381086  RH  069%=      5-min Rain = 0
KLE1 130859Z 06004KT M04/M09 A3031 RMK A01 T10381086  RH  069%=      5-min Rain = 0
KLE1 130900Z 06004KT M04/M09 A3031 RMK A01 T10381086  RH  069%=      5-min Rain = 0
KLE1 130901Z 07004KT M04/M09 A3031 RMK A01 T10381086  RH  069%=      5-min Rain = 0
KLE1 130902Z 07004KT M04/M09 A3031 RMK A01 T10391087  RH  069%=      5-min Rain = 0
KLE1 130903Z 07005KT M04/M09 A3031 RMK A01 T10381086  RH  070%=      5-min Rain = 0
KLE1 130904Z 07005KT M04/M09 A3031 RMK A01 T10381086  RH  070%=      5-min Rain = 0
KLE1 130905Z 07005KT M04/M09 A3031 RMK A01 T10381086  RH  070%=      5-min Rain = 0
KLE1 130906Z 07005KT M04/M09 A3031 RMK A01 T10381086  RH  070%=      5-min Rain = 0
KLE1 130907Z 07005KT M04/M09 A3031 RMK A01 T10391086  RH  070%=      5-min Rain = 0
KLE1 130908Z 07005KT M04/M09 A3031 RMK A01 T10391085  RH  070%=      5-min Rain = 0
KLE1 130909Z 07005KT M04/M09 A3031 RMK A01 T10391086  RH  070%=      5-min Rain = 0
KLE1 130910Z 07005KT M04/M09 A3031 RMK A01 T10391085  RH  070%=      5-min Rain = 0
KLE1 130911Z 07005KT M04/M09 A3031 RMK A01 T10391085  RH  070%=      5-min Rain = 0
KLE1 130912Z 07005KT M04/M09 A3031 RMK A01 T10391085  RH  070%=      5-min Rain = 0
KLE1 130913Z 07005KT M04/M09 A3031 RMK A01 T10391085  RH  070%=      5-min Rain = 0
KLE1 130914Z 07005KT M04/M09 A3031 RMK A01 T10391085  RH  071%=      5-min Rain = 0
KLE1 130915Z 07005KT M04/M09 A3031 RMK A01 T10391085  RH  070%=      5-min Rain = 0
KLE1 130916Z 07004KT M04/M09 A3031 RMK A01 T10391085  RH  071%=      5-min Rain = 0
KLE1 130917Z 07004KT M04/M09 A3031 RMK A01 T10391085  RH  071%=      5-min Rain = 0
KLE1 130918Z 07004KT M04/M08 A3031 RMK A01 T10391084  RH  071%=      5-min Rain = 0
KLE1 130919Z 07004KT M04/M08 A3031 RMK A01 T10391084  RH  071%=      5-min Rain = 0
KLE1 130920Z 07004KT M04/M08 A3031 RMK A01 T10381084  RH  071%=      5-min Rain = 0
KLE1 130921Z 07004KT M04/M08 A3031 RMK A01 T10381084  RH  071%=      5-min Rain = 0
KLE1 130922Z 07004KT M04/M08 A3031 RMK A01 T10381084  RH  070%=      5-min Rain = 0
KLE1 130923Z 07004KT M04/M08 A3031 RMK A01 T10381084  RH  070%=      5-min Rain = 0
KLE1 130924Z 07004KT M04/M08 A3031 RMK A01 T10381084  RH  070%=      5-min Rain = 0
KLE1 130925Z 07004KT M04/M08 A3031 RMK A01 T10371083  RH  071%=      5-min Rain = 0
KLE1 130926Z 07004KT M04/M08 A3031 RMK A01 T10371082  RH  071%=      5-min Rain = 0
KLE1 130927Z 07004KT M04/M08 A3031 RMK A01 T10371082  RH  070%=      5-min Rain = 0
KLE1 130928Z 07003KT M04/M08 A3031 RMK A01 T10361082  RH  070%=      5-min Rain = 0
KLE1 130929Z 07004KT M04/M08 A3031 RMK A01 T10351081  RH  071%=      5-min Rain = 0
KLE1 130930Z 07004KT M04/M08 A3031 RMK A01 T10351081  RH  070%=      5-min Rain = 0
KLE1 130931Z 07004KT M03/M08 A3031 RMK A01 T10341081  RH  070%=      5-min Rain = 0
KLE1 130932Z 07004KT M03/M08 A3031 RMK A01 T10341081  RH  070%=      5-min Rain = 0
KLE1 130933Z 07004KT M03/M08 A3031 RMK A01 T10341081  RH  070%=      5-min Rain = 0
KLE1 130934Z 07005KT M03/M08 A3031 RMK A01 T10341081  RH  070%=      5-min Rain = 0
KLE1 130935Z 07005KT M04/M08 A3031 RMK A01 T10351082  RH  070%=      5-min Rain = 0
KLE1 130936Z 07005KT M04/M08 A3031 RMK A01 T10351083  RH  070%=      5-min Rain = 0
KLE1 130937Z 07005KT M04/M08 A3031 RMK A01 T10361083  RH  070%=      5-min Rain = 0
KLE1 130938Z 07005KT M04/M08 A3031 RMK A01 T10361082  RH  070%=      5-min Rain = 0
KLE1 130939Z 07004KT M04/M08 A3031 RMK A01 T10361082  RH  070%=      5-min Rain = 0
KLE1 130940Z 08005KT M04/M08 A3031 RMK A01 T10371083  RH  070%=      5-min Rain = 0
KLE1 130941Z 08005KT M04/M08 A3031 RMK A01 T10371083  RH  070%=      5-min Rain = 0
KLE1 130942Z 08005KT M04/M08 A3031 RMK A01 T10381083  RH  071%=      5-min Rain = 0
KLE1 130943Z 08005KT M04/M08 A3031 RMK A01 T10381083  RH  071%=      5-min Rain = 0
KLE1 130944Z 09005KT M04/M08 A3031 RMK A01 T10381082  RH  071%=      5-min Rain = 0
KLE1 130945Z 08005KT M04/M08 A3031 RMK A01 T10381082  RH  071%=      5-min Rain = 0
KLE1 130946Z 08005KT M04/M08 A3031 RMK A01 T10381082  RH  071%=      5-min Rain = 0
KLE1 130947Z 09005KT M04/M08 A3031 RMK A01 T10371082  RH  071%=      5-min Rain = 0
KLE1 130948Z 08005KT M04/M08 A3031 RMK A01 T10371082  RH  071%=      5-min Rain = 0
KLE1 130949Z 09005KT M04/M08 A3031 RMK A01 T10371082  RH  071%=      5-min Rain = 0
KLE1 130950Z 09005KT M04/M08 A3031 RMK A01 T10371081  RH  071%=      5-min Rain = 0
KLE1 130951Z 08005KT M04/M08 A303 RMK A01 T10381082  RH  071%=      5-min Rain = 0
KLE1 130952Z 08005KT M04/M08 A303 RMK A01 T10391083  RH  071%=      5-min Rain = 0
KLE1 130953Z 08006KT M04/M08 A303 RMK A01 T10401084  RH  072%=      5-min Rain = 0
KLE1 130954Z 08006KT M04/M08 A303 RMK A01 T10411084  RH  072%=      5-min Rain = 0
KLE1 130955Z 08006KT M04/M09 A303 RMK A01 T10421085  RH  072%=      5-min Rain = 0
KLE1 130956Z 08006KT M04/M09 A303 RMK A01 T10431086  RH  072%=      5-min Rain = 0
KLE1 130957Z 09006KT M04/M09 A303 RMK A01 T10441086  RH  072%=      5-min Rain = 0
KLE1 130958Z 09005KT M04/M09 A303 RMK A01 T10441087  RH  072%=      5-min Rain = 0
KLE1 130959Z 09005KT M05/M09 A303 RMK A01 T10451087  RH  072%=      5-min Rain = 0
KLE1 131000Z 09005KT M05/M09 A303 RMK A01 T10451086  RH  073%=      5-min Rain = 0
KLE1 131001Z 08005KT M05/M09 A303 RMK A01 T10451086  RH  073%=      5-min Rain = 0
KLE1 131002Z 08005KT M04/M09 A303 RMK A01 T10441085  RH  073%=      5-min Rain = 0
KLE1 131003Z 08005KT M04/M09 A303 RMK A01 T10441085  RH  073%=      5-min Rain = 0
KLE1 131004Z 08005KT M04/M09 A303 RMK A01 T10441085  RH  073%=      5-min Rain = 0
KLE1 131005Z 08005KT M04/M08 A303 RMK A01 T10441084  RH  073%=      5-min Rain = 0
KLE1 131006Z 07005KT M04/M08 A303 RMK A01 T10431084  RH  074%=      5-min Rain = 0
KLE1 131007Z 07005KT M04/M08 A303 RMK A01 T10431084  RH  073%=      5-min Rain = 0
KLE1 131008Z 07005KT M04/M08 A303 RMK A01 T10431084  RH  073%=      5-min Rain = 0
KLE1 131009Z 07005KT M04/M08 A303 RMK A01 T10431084  RH  073%=      5-min Rain = 0
KLE1 131010Z 06005KT M04/M08 A303 RMK A01 T10431084  RH  073%=      5-min Rain = 0
KLE1 131011Z 06005KT M04/M08 A3031 RMK A01 T10431083  RH  074%=      5-min Rain = 0
KLE1 131012Z 06004KT M04/M08 A3031 RMK A01 T10431083  RH  073%=      5-min Rain = 0
KLE1 131013Z 06004KT M04/M08 A3031 RMK A01 T10431083  RH  073%=      5-min Rain = 0
KLE1 131014Z 05004KT M04/M08 A3031 RMK A01 T10431083  RH  074%=      5-min Rain = 0
KLE1 131015Z 05004KT M04/M08 A3031 RMK A01 T10421083  RH  074%=      5-min Rain = 0
KLE1 131016Z 06004KT M04/M08 A3031 RMK A01 T10421083  RH  073%=      5-min Rain = 0
KLE1 131017Z 06003KT M04/M09 A3031 RMK A01 T10431085  RH  073%=      5-min Rain = 0
KLE1 131018Z 06003KT M04/M09 A3031 RMK A01 T10441086  RH  072%=      5-min Rain = 0
KLE1 131019Z 06003KT M05/M09 A3031 RMK A01 T10451088  RH  072%=      5-min Rain = 0
KLE1 131020Z 06004KT M05/M09 A3031 RMK A01 T10461089  RH  072%=      5-min Rain = 0
KLE1 131021Z 06004KT M05/M09 A3031 RMK A01 T10461087  RH  073%=      5-min Rain = 0
KLE1 131022Z 06003KT M05/M09 A3031 RMK A01 T10461086  RH  074%=      5-min Rain = 0
KLE1 131023Z 06003KT M05/M08 A3031 RMK A01 T10451084  RH  074%=      5-min Rain = 0
KLE1 131024Z 05003KT M04/M08 A3031 RMK A01 T10441083  RH  074%=      5-min Rain = 0
KLE1 131025Z 05003KT M04/M08 A3031 RMK A01 T10441084  RH  074%=      5-min Rain = 0
KLE1 131026Z 04003KT M04/M08 A3031 RMK A01 T10441084  RH  074%=      5-min Rain = 0
KLE1 131027Z 04003KT M04/M08 A3031 RMK A01 T10431084  RH  073%=      5-min Rain = 0
KLE1 131028Z 03003KT M04/M09 A3031 RMK A01 T10431085  RH  073%=      5-min Rain = 0
KLE1 131029Z 03003KT M04/M09 A3031 RMK A01 T10441086  RH  072%=      5-min Rain = 0
KLE1 131030Z 02003KT M05/M09 A3032 RMK A01 T10451086  RH  073%=      5-min Rain = 0
KLE1 131031Z 02003KT M05/M09 A3032 RMK A01 T10451086  RH  073%=      5-min Rain = 0
KLE1 131032Z 02002KT M05/M09 A3032 RMK A01 T10451087  RH  073%=      5-min Rain = 0
KLE1 131033Z 01002KT M05/M09 A3032 RMK A01 T10461088  RH  073%=      5-min Rain = 0
KLE1 131034Z 02002KT M05/M09 A3032 RMK A01 T10471088  RH  073%=      5-min Rain = 0
KLE1 131035Z 02002KT M05/M09 A3032 RMK A01 T10471089  RH  073%=      5-min Rain = 0
KLE1 131036Z 02002KT M05/M09 A3032 RMK A01 T10481090  RH  073%=      5-min Rain = 0
KLE1 131037Z 01002KT M05/M09 A3032 RMK A01 T10481090  RH  073%=      5-min Rain = 0
KLE1 131038Z 01002KT M05/M09 A3032 RMK A01 T10481090  RH  073%=      5-min Rain = 0
KLE1 131039Z 01002KT M05/M09 A3032 RMK A01 T10481089  RH  073%=      5-min Rain = 0
KLE1 131040Z 36003KT M05/M09 A3032 RMK A01 T10491090  RH  073%=      5-min Rain = 0
KLE1 131041Z 35003KT M05/M09 A3032 RMK A01 T10501093  RH  072%=      5-min Rain = 0
KLE1 131042Z 35003KT M05/M09 A3032 RMK A01 T10521094  RH  072%=      5-min Rain = 0
KLE1 131043Z 33003KT M05/M09 A3032 RMK A01 T10521092  RH  073%=      5-min Rain = 0
KLE1 131044Z 31003KT M05/M09 A3032 RMK A01 T10521091  RH  074%=      5-min Rain = 0
KLE1 131045Z 32002KT M05/M09 A3032 RMK A01 T10531092  RH  074%=      5-min Rain = 0
KLE1 131046Z 33002KT M05/M09 A3032 RMK A01 T10531092  RH  074%=      5-min Rain = 0
KLE1 131047Z 33002KT M05/M09 A3032 RMK A01 T10531092  RH  074%=      5-min Rain = 0
KLE1 131048Z 33002KT M05/M09 A3032 RMK A01 T10531092  RH  074%=      5-min Rain = 0
KLE1 131049Z 33002KT M05/M09 A3032 RMK A01 T10531089  RH  076%=      5-min Rain = 0
KLE1 131050Z 34002KT M05/M09 A3032 RMK A01 T10531088  RH  076%=      5-min Rain = 0
KLE1 131051Z 34002KT M05/M09 A3032 RMK A01 T10531088  RH  077%=      5-min Rain = 0
KLE1 131052Z 35002KT M05/M09 A3032 RMK A01 T10531086  RH  077%=      5-min Rain = 0
KLE1 131053Z 01003KT M05/M08 A3032 RMK A01 T10521084  RH  078%=      5-min Rain = 0
KLE1 131054Z 01003KT M05/M08 A3032 RMK A01 T10501083  RH  078%=      5-min Rain = 0
KLE1 131055Z 02004KT M05/M08 A3032 RMK A01 T10491083  RH  077%=      5-min Rain = 0
KLE1 131056Z 02004KT M05/M08 A3032 RMK A01 T10481082  RH  077%=      5-min Rain = 0
KLE1 131057Z 02004KT M05/M08 A3032 RMK A01 T10471081  RH  077%=      5-min Rain = 0
KLE1 131058Z 02004KT M05/M08 A3032 RMK A01 T10451081  RH  076%=      5-min Rain = 0
KLE1 131059Z 02004KT M05/M08 A3032 RMK A01 T10451080  RH  076%=      5-min Rain = 0
KLE1 131100Z 02004KT M04/M08 A3032 RMK A01 T10441080  RH  076%=      5-min Rain = 0
KLE1 131101Z 03004KT M04/M08 A3032 RMK A01 T10441081  RH  076%=      5-min Rain = 0
KLE1 131102Z 03004KT M04/M08 A3032 RMK A01 T10441080  RH  076%=      5-min Rain = 0
KLE1 131103Z 03004KT M04/M08 A3032 RMK A01 T10441080  RH  076%=      5-min Rain = 0
KLE1 131104Z 03004KT M04/M08 A3032 RMK A01 T10441080  RH  076%=      5-min Rain = 0
KLE1 131105Z 04004KT M04/M08 A3032 RMK A01 T10441080  RH  076%=      5-min Rain = 0
KLE1 131106Z 04004KT M04/M08 A3032 RMK A01 T10441080  RH  076%=      5-min Rain = 0
KLE1 131107Z 04004KT M04/M08 A3033 RMK A01 T10431079  RH  076%=      5-min Rain = 0
KLE1 131108Z 03004KT M04/M08 A3033 RMK A01 T10431078  RH  077%=      5-min Rain = 0
KLE1 131109Z 03004KT M04/M08 A3033 RMK A01 T10421077  RH  077%=      5-min Rain = 0
KLE1 131110Z 03004KT M04/M08 A3033 RMK A01 T10421077  RH  076%=      5-min Rain = 0
KLE1 131111Z 03004KT M04/M08 A3033 RMK A01 T10421077  RH  076%=      5-min Rain = 0
KLE1 131112Z 04004KT M04/M08 A3033 RMK A01 T10411077  RH  076%=      5-min Rain = 0
KLE1 131113Z 03004KT M04/M08 A3033 RMK A01 T10411078  RH  076%=      5-min Rain = 0
KLE1 131114Z 03003KT M04/M08 A3033 RMK A01 T10421078  RH  076%=      5-min Rain = 0
KLE1 131115Z 03004KT M04/M08 A3033 RMK A01 T10421079  RH  076%=      5-min Rain = 0
KLE1 131116Z 03003KT M04/M08 A3033 RMK A01 T10421079  RH  076%=      5-min Rain = 0
KLE1 131117Z 03003KT M04/M08 A3033 RMK A01 T10431079  RH  076%=      5-min Rain = 0
KLE1 131118Z 03003KT M04/M08 A3033 RMK A01 T10431080  RH  076%=      5-min Rain = 0
KLE1 131119Z 03003KT M04/M08 A3033 RMK A01 T10441080  RH  076%=      5-min Rain = 0
KLE1 131120Z 03003KT M04/M08 A3033 RMK A01 T10441080  RH  076%=      5-min Rain = 0
KLE1 131121Z 03003KT M04/M08 A3033 RMK A01 T10441080  RH  076%=      5-min Rain = 0
KLE1 131122Z 03004KT M04/M08 A3033 RMK A01 T10441080  RH  076%=      5-min Rain = 0
KLE1 131123Z 03004KT M05/M08 A3033 RMK A01 T10451080  RH  077%=      5-min Rain = 0
KLE1 131124Z 04004KT M05/M08 A3033 RMK A01 T10451079  RH  077%=      5-min Rain = 0
KLE1 131125Z 03004KT M05/M08 A3033 RMK A01 T10451080  RH  077%=      5-min Rain = 0
KLE1 131126Z 03004KT M05/M08 A3033 RMK A01 T10461080  RH  077%=      5-min Rain = 0
KLE1 131127Z 03004KT M05/M08 A3033 RMK A01 T10461078  RH  078%=      5-min Rain = 0
KLE1 131128Z 03004KT M05/M08 A3033 RMK A01 T10451078  RH  078%=      5-min Rain = 0
KLE1 131129Z 03005KT M05/M08 A3033 RMK A01 T10451078  RH  078%=      5-min Rain = 0
KLE1 131130Z 03004KT M05/M08 A3033 RMK A01 T10451079  RH  077%=      5-min Rain = 0
KLE1 131131Z 03004KT M05/M08 A3033 RMK A01 T10451079  RH  077%=      5-min Rain = 0
KLE1 131132Z 04004KT M05/M08 A3033 RMK A01 T10451079  RH  077%=      5-min Rain = 0
KLE1 131133Z 04003KT M05/M08 A3033 RMK A01 T10461080  RH  077%=      5-min Rain = 0
KLE1 131134Z 04003KT M05/M08 A3033 RMK A01 T10471081  RH  077%=      5-min Rain = 0
KLE1 131135Z 04004KT M05/M08 A3033 RMK A01 T10481081  RH  078%=      5-min Rain = 0
KLE1 131136Z 04004KT M05/M08 A3033 RMK A01 T10481080  RH  078%=      5-min Rain = 0
KLE1 131137Z 04004KT M05/M08 A3033 RMK A01 T10471079  RH  078%=      5-min Rain = 0
KLE1 131138Z 04004KT M05/M08 A3033 RMK A01 T10471079  RH  078%=      5-min Rain = 0
KLE1 131139Z 04005KT M05/M08 A3033 RMK A01 T10461079  RH  078%=      5-min Rain = 0
KLE1 131140Z 04004KT M05/M08 A3033 RMK A01 T10461079  RH  078%=      5-min Rain = 0
KLE1 131141Z 04004KT M05/M08 A3033 RMK A01 T10461078  RH  078%=      5-min Rain = 0
KLE1 131142Z 04005KT M05/M08 A3033 RMK A01 T10471078  RH  079%=      5-min Rain = 0
KLE1 131143Z 04004KT M05/M08 A3033 RMK A01 T10461078  RH  079%=      5-min Rain = 0
KLE1 131144Z 05004KT M05/M08 A3033 RMK A01 T10451077  RH  079%=      5-min Rain = 0
KLE1 131145Z 05005KT M04/M08 A3033 RMK A01 T10441076  RH  079%=      5-min Rain = 0
KLE1 131146Z 06004KT M04/M08 A3033 RMK A01 T10431075  RH  078%=      5-min Rain = 0
KLE1 131147Z 06005KT M04/M08 A3033 RMK A01 T10431076  RH  078%=      5-min Rain = 0
KLE1 131148Z 06005KT M04/M08 A3033 RMK A01 T10431077  RH  077%=      5-min Rain = 0
KLE1 131149Z 05004KT M04/M08 A3033 RMK A01 T10431077  RH  077%=      5-min Rain = 0
KLE1 131150Z 06004KT M04/M08 A3033 RMK A01 T10431077  RH  077%=      5-min Rain = 0
KLE1 131151Z 06004KT M04/M08 A3033 RMK A01 T10431078  RH  077%=      5-min Rain = 0
KLE1 131152Z 06005KT M04/M08 A3033 RMK A01 T10431078  RH  077%=      5-min Rain = 0
KLE1 131153Z 05005KT M04/M08 A3032 RMK A01 T10431078  RH  076%=      5-min Rain = 0
KLE1 131154Z 05005KT M04/M08 A3032 RMK A01 T10431080  RH  076%=      5-min Rain = 0
KLE1 131155Z 05006KT M04/M08 A3032 RMK A01 T10431080  RH  076%=      5-min Rain = 0
KLE1 131156Z 05006KT M04/M08 A3032 RMK A01 T10431079  RH  076%=      5-min Rain = 0
KLE1 131157Z 05005KT M04/M08 A3032 RMK A01 T10431080  RH  076%=      5-min Rain = 0
KLE1 131158Z 06005KT M04/M08 A3032 RMK A01 T10431080  RH  076%=      5-min Rain = 0
KLE1 131159Z 06005KT M04/M08 A3032 RMK A01 T10431080  RH  076%=      5-min Rain = 0
KLE1 131200Z 06005KT M04/M08 A3032 RMK A01 T10421079  RH  075%=      5-min Rain = 0
KLE1 131201Z 06005KT M04/M08 A3032 RMK A01 T10421079  RH  075%=      5-min Rain = 0
KLE1 131202Z 06005KT M04/M08 A3033 RMK A01 T10421080  RH  075%=      5-min Rain = 0
KLE1 131203Z 06004KT M04/M08 A3033 RMK A01 T10411080  RH  075%=      5-min Rain = 0
KLE1 131204Z 06005KT M04/M08 A3033 RMK A01 T10411080  RH  074%=      5-min Rain = 0
KLE1 131205Z 06005KT M04/M08 A3032 RMK A01 T10411079  RH  075%=      5-min Rain = 0
KLE1 131206Z 06005KT M04/M08 A3032 RMK A01 T10401079  RH  075%=      5-min Rain = 0
KLE1 131207Z 06004KT M04/M08 A3032 RMK A01 T10401078  RH  075%=      5-min Rain = 0
KLE1 131208Z 07005KT M04/M08 A3032 RMK A01 T10391077  RH  075%=      5-min Rain = 0
KLE1 131209Z 07006KT M04/M08 A3032 RMK A01 T10391078  RH  074%=      5-min Rain = 0
KLE1 131210Z 07005KT M04/M08 A3032 RMK A01 T10381078  RH  074%=      5-min Rain = 0
KLE1 131211Z 08005KT M04/M08 A3032 RMK A01 T10371078  RH  074%=      5-min Rain = 0
KLE1 131212Z 07005KT M04/M08 A3032 RMK A01 T10371077  RH  074%=      5-min Rain = 0
KLE1 131213Z 07004KT M04/M08 A3032 RMK A01 T10361076  RH  074%=      5-min Rain = 0
KLE1 131214Z 07004KT M04/M08 A3032 RMK A01 T10351075  RH  074%=      5-min Rain = 0
KLE1 131215Z 07004KT M03/M07 A3032 RMK A01 T10341074  RH  074%=      5-min Rain = 0
KLE1 131216Z 07005KT M03/M07 A3032 RMK A01 T10331073  RH  074%=      5-min Rain = 0
KLE1 131217Z 07004KT M03/M07 A3032 RMK A01 T10331074  RH  073%=      5-min Rain = 0
KLE1 131218Z 07004KT M03/M08 A3032 RMK A01 T10331075  RH  073%=      5-min Rain = 0
KLE1 131219Z 07004KT M03/M08 A3032 RMK A01 T10331076  RH  072%=      5-min Rain = 0
KLE1 131220Z 07004KT M03/M08 A3032 RMK A01 T10331076  RH  072%=      5-min Rain = 0
KLE1 131221Z 06004KT M03/M08 A3032 RMK A01 T10331077  RH  072%=      5-min Rain = 0
KLE1 131222Z 07003KT M03/M08 A3032 RMK A01 T10341078  RH  072%=      5-min Rain = 0
KLE1 131223Z 08004KT M03/M08 A3032 RMK A01 T10341078  RH  072%=      5-min Rain = 0
KLE1 131224Z 08004KT M03/M08 A3032 RMK A01 T10341078  RH  072%=      5-min Rain = 0
KLE1 131225Z 08004KT M04/M08 A3032 RMK A01 T10351078  RH  072%=      5-min Rain = 0
KLE1 131226Z 08004KT M04/M08 A3033 RMK A01 T10351078  RH  072%=      5-min Rain = 0
KLE1 131227Z 08004KT M03/M08 A3033 RMK A01 T10341077  RH  072%=      5-min Rain = 0
KLE1 131228Z 08004KT M04/M08 A3033 RMK A01 T10351077  RH  073%=      5-min Rain = 0
KLE1 131229Z 08004KT M03/M08 A3033 RMK A01 T10341076  RH  073%=      5-min Rain = 0
KLE1 131230Z 09003KT M03/M08 A3033 RMK A01 T10341076  RH  073%=      5-min Rain = 0
KLE1 131231Z 09003KT M03/M08 A3033 RMK A01 T10341075  RH  073%=      5-min Rain = 0
KLE1 131232Z 09003KT M03/M08 A3033 RMK A01 T10331075  RH  073%=      5-min Rain = 0
KLE1 131233Z 10002KT M03/M07 A3033 RMK A01 T10331074  RH  073%=      5-min Rain = 0
KLE1 131234Z 10003KT M03/M07 A3033 RMK A01 T10321074  RH  073%=      5-min Rain = 0
KLE1 131235Z 10003KT M03/M07 A3033 RMK A01 T10321073  RH  073%=      5-min Rain = 0
KLE1 131236Z 12002KT M03/M07 A3033 RMK A01 T10311072  RH  073%=      5-min Rain = 0
KLE1 131237Z 16002KT M03/M07 A3033 RMK A01 T10311072  RH  073%=      5-min Rain = 0
KLE1 131238Z 15002KT M03/M08 A3033 RMK A01 T10301075  RH  071%=      5-min Rain = 0
KLE1 131239Z 14002KT M03/M08 A3033 RMK A01 T10311079  RH  069%=      5-min Rain = 0
KLE1 131240Z 18003KT M03/M08 A3033 RMK A01 T10321081  RH  069%=      5-min Rain = 0
KLE1 131241Z 19003KT M03/M08 A3033 RMK A01 T10331083  RH  069%=      5-min Rain = 0
KLE1 131242Z 19003KT M03/M08 A3033 RMK A01 T10341084  RH  069%=      5-min Rain = 0
KLE1 131243Z 19002KT M04/M09 A3033 RMK A01 T10371087  RH  068%=      5-min Rain = 0
KLE1 131244Z 19002KT M04/M09 A3033 RMK A01 T10391088  RH  069%=      5-min Rain = 0
KLE1 131245Z 19003KT M04/M09 A3033 RMK A01 T10411089  RH  069%=      5-min Rain = 0
KLE1 131246Z 18002KT M04/M09 A3033 RMK A01 T10421089  RH  069%=      5-min Rain = 0
KLE1 131247Z 18002KT M04/M09 A3033 RMK A01 T10431091  RH  069%=      5-min Rain = 0
KLE1 131248Z 18002KT M04/M09 A3033 RMK A01 T10441092  RH  069%=      5-min Rain = 0
KLE1 131249Z 17002KT M05/M09 A3033 RMK A01 T10451093  RH  069%=      5-min Rain = 0
KLE1 131250Z 17002KT M05/M09 A3033 RMK A01 T10461093  RH  070%=      5-min Rain = 0
KLE1 131251Z 18003KT M05/M09 A3033 RMK A01 T10471093  RH  070%=      5-min Rain = 0
KLE1 131252Z 18003KT M05/M09 A3034 RMK A01 T10471093  RH  070%=      5-min Rain = 0
KLE1 131253Z 17003KT M05/M09 A3034 RMK A01 T10471093  RH  070%=      5-min Rain = 0
KLE1 131254Z 16003KT M05/M09 A3034 RMK A01 T10481094  RH  070%=      5-min Rain = 0
KLE1 131255Z 17004KT M05/M10 A3034 RMK A01 T10481095  RH  070%=      5-min Rain = 0
KLE1 131256Z 18004KT M05/M10 A3033 RMK A01 T10491096  RH  070%=      5-min Rain = 0
KLE1 131257Z 19004KT M05/M10 A3033 RMK A01 T10491097  RH  069%=      5-min Rain = 0
KLE1 131258Z 19004KT M05/M10 A3033 RMK A01 T10501097  RH  069%=      5-min Rain = 0
KLE1 131259Z 18004KT M05/M10 A3033 RMK A01 T10511098  RH  070%=      5-min Rain = 0
KLE1 131300Z 18004KT M05/M10 A3033 RMK A01 T10521097  RH  070%=      5-min Rain = 0
KLE1 131301Z 18004KT M05/M10 A3033 RMK A01 T10521097  RH  071%=      5-min Rain = 0
KLE1 131302Z 18004KT M05/M10 A3033 RMK A01 T10531096  RH  072%=      5-min Rain = 0
KLE1 131303Z 19004KT M05/M10 A3033 RMK A01 T10541096  RH  072%=      5-min Rain = 0
KLE1 131304Z 19004KT M05/M10 A3034 RMK A01 T10541096  RH  072%=      5-min Rain = 0
KLE1 131305Z 18004KT M05/M10 A3034 RMK A01 T10541097  RH  072%=      5-min Rain = 0
KLE1 131306Z 18003KT M05/M10 A3033 RMK A01 T10541096  RH  072%=      5-min Rain = 0
KLE1 131307Z 18003KT M06/M10 A3033 RMK A01 T10551096  RH  072%=      5-min Rain = 0
KLE1 131308Z 17003KT M05/M10 A3033 RMK A01 T10541096  RH  073%=      5-min Rain = 0
KLE1 131309Z 14003KT M06/M10 A3033 RMK A01 T10551096  RH  073%=      5-min Rain = 0
KLE1 131310Z 14003KT M05/M10 A3033 RMK A01 T10541095  RH  073%=      5-min Rain = 0
KLE1 131311Z 14004KT M05/M09 A3033 RMK A01 T10541094  RH  073%=      5-min Rain = 0
KLE1 131312Z 14003KT M05/M09 A3033 RMK A01 T10531093  RH  074%=      5-min Rain = 0
KLE1 131313Z 14003KT M05/M09 A3033 RMK A01 T10521092  RH  074%=      5-min Rain = 0
KLE1 131314Z 14002KT M05/M09 A3033 RMK A01 T10521092  RH  073%=      5-min Rain = 0
KLE1 131315Z 14002KT M05/M09 A3033 RMK A01 T10511091  RH  074%=      5-min Rain = 0
KLE1 131316Z 14002KT M05/M09 A3034 RMK A01 T10501090  RH  074%=      5-min Rain = 0
KLE1 131317Z 14001KT M05/M09 A3034 RMK A01 T10501090  RH  074%=      5-min Rain = 0
KLE1 131318Z 16001KT M05/M09 A3034 RMK A01 T10491089  RH  074%=      5-min Rain = 0
KLE1 131319Z 19001KT M05/M09 A3034 RMK A01 T10491090  RH  073%=      5-min Rain = 0
KLE1 131320Z 28001KT M05/M10 A3034 RMK A01 T10501095  RH  071%=      5-min Rain = 0
KLE1 131321Z 28001KT M05/M10 A3034 RMK A01 T10531099  RH  070%=      5-min Rain = 0
KLE1 131322Z 25000KT M06/M10 A3034 RMK A01 T10551097  RH  072%=      5-min Rain = 0
KLE1 131323Z 00000KT M06/M10 A3034 RMK A01 T10551095  RH  073%=      5-min Rain = 0
KLE1 131324Z 24000KT M05/M09 A3034 RMK A01 T10541094  RH  074%=      5-min Rain = 0
KLE1 131325Z 25001KT M05/M09 A3034 RMK A01 T10541094  RH  073%=      5-min Rain = 0
KLE1 131326Z 24001KT M05/M09 A3034 RMK A01 T10531094  RH  073%=      5-min Rain = 0
KLE1 131327Z 23001KT M05/M10 A3034 RMK A01 T10531095  RH  073%=      5-min Rain = 0
KLE1 131328Z 22001KT M05/M10 A3034 RMK A01 T10531095  RH  073%=      5-min Rain = 0
KLE1 131329Z 21001KT M05/M10 A3034 RMK A01 T10531095  RH  072%=      5-min Rain = 0
KLE1 131330Z 20000KT M05/M10 A3034 RMK A01 T10531096  RH  072%=      5-min Rain = 0
KLE1 131331Z 20000KT M05/M10 A3034 RMK A01 T10531096  RH  072%=      5-min Rain = 0
KLE1 131332Z 20001KT M05/M10 A3034 RMK A01 T10531096  RH  071%=      5-min Rain = 0
KLE1 131333Z 21001KT M05/M10 A3034 RMK A01 T10521096  RH  071%=      5-min Rain = 0
KLE1 131334Z 23002KT M05/M10 A3034 RMK A01 T10521097  RH  071%=      5-min Rain = 0
KLE1 131335Z 23003KT M05/M10 A3034 RMK A01 T10521098  RH  071%=      5-min Rain = 0
KLE1 131336Z 23003KT M05/M10 A3034 RMK A01 T10531098  RH  070%=      5-min Rain = 0
KLE1 131337Z 25003KT M05/M10 A3034 RMK A01 T10531098  RH  070%=      5-min Rain = 0
KLE1 131338Z 25003KT M05/M10 A3034 RMK A01 T10521098  RH  070%=      5-min Rain = 0
KLE1 131339Z 26003KT M05/M10 A3034 RMK A01 T10531099  RH  070%=      5-min Rain = 0
KLE1 131340Z 27003KT M05/M10 A3034 RMK A01 T10531100  RH  070%=      5-min Rain = 0
KLE1 131341Z 27003KT M06/M10 A3034 RMK A01 T10551101  RH  070%=      5-min Rain = 0
KLE1 131342Z 26003KT M06/M10 A3034 RMK A01 T10551102  RH  070%=      5-min Rain = 0
KLE1 131343Z 26003KT M06/M10 A3035 RMK A01 T10561103  RH  070%=      5-min Rain = 0
KLE1 131344Z 26003KT M06/M10 A3035 RMK A01 T10561104  RH  069%=      5-min Rain = 0
KLE1 131345Z 26003KT M06/M10 A3034 RMK A01 T10571104  RH  069%=      5-min Rain = 0
KLE1 131346Z 27003KT M06/M11 A3034 RMK A01 T10571105  RH  069%=      5-min Rain = 0
KLE1 131347Z 27004KT M06/M11 A3034 RMK A01 T10581105  RH  069%=      5-min Rain = 0
KLE1 131348Z 28004KT M06/M11 A3034 RMK A01 T10581106  RH  069%=      5-min Rain = 0
KLE1 131349Z 28004KT M06/M11 A3034 RMK A01 T10581106  RH  069%=      5-min Rain = 0
KLE1 131350Z 28004KT M06/M11 A3035 RMK A01 T10591106  RH  069%=      5-min Rain = 0
KLE1 131351Z 28004KT M06/M11 A3035 RMK A01 T10591107  RH  069%=      5-min Rain = 0
KLE1 131352Z 28005KT M06/M11 A3034 RMK A01 T10591107  RH  069%=      5-min Rain = 0
KLE1 131353Z 28004KT M06/M11 A3035 RMK A01 T10601107  RH  069%=      5-min Rain = 0
KLE1 131354Z 28004KT M06/M11 A3035 RMK A01 T10601107  RH  069%=      5-min Rain = 0
KLE1 131355Z 29004KT M06/M11 A3035 RMK A01 T10601107  RH  069%=      5-min Rain = 0
KLE1 131356Z 29003KT M06/M11 A3035 RMK A01 T10601107  RH  069%=      5-min Rain = 0
KLE1 131357Z 29003KT M06/M11 A3035 RMK A01 T10601106  RH  070%=      5-min Rain = 0
KLE1 131358Z 29003KT M06/M11 A3035 RMK A01 T10601106  RH  070%=      5-min Rain = 0
KLE1 131359Z 29003KT M06/M11 A3035 RMK A01 T10591105  RH  070%=      5-min Rain = 0
KLE1 131400Z 29003KT M06/M10 A3035 RMK A01 T10591104  RH  071%=      5-min Rain = 0
KLE1 131401Z 30003KT M06/M10 A3035 RMK A01 T10591103  RH  071%=      5-min Rain = 0
KLE1 131402Z 30003KT M06/M10 A3035 RMK A01 T10581102  RH  071%=      5-min Rain = 0
KLE1 131403Z 30003KT M06/M10 A3035 RMK A01 T10571101  RH  071%=      5-min Rain = 0
KLE1 131404Z 30003KT M06/M10 A3035 RMK A01 T10561099  RH  071%=      5-min Rain = 0
KLE1 131405Z 29003KT M06/M10 A3035 RMK A01 T10551099  RH  071%=      5-min Rain = 0
KLE1 131406Z 29002KT M06/M10 A3035 RMK A01 T10551098  RH  072%=      5-min Rain = 0
KLE1 131407Z 29002KT M05/M10 A3035 RMK A01 T10541097  RH  072%=      5-min Rain = 0
KLE1 131408Z 29002KT M05/M10 A3035 RMK A01 T10531095  RH  072%=      5-min Rain = 0
KLE1 131409Z 30002KT M05/M09 A3035 RMK A01 T10521094  RH  073%=      5-min Rain = 0
KLE1 131410Z 30002KT M05/M09 A3035 RMK A01 T10511093  RH  073%=      5-min Rain = 0
KLE1 131411Z 29002KT M05/M09 A3035 RMK A01 T10511093  RH  072%=      5-min Rain = 0
KLE1 131412Z 30002KT M05/M09 A3035 RMK A01 T10501092  RH  072%=      5-min Rain = 0
KLE1 131413Z 30002KT M05/M09 A3035 RMK A01 T10491092  RH  072%=      5-min Rain = 0
KLE1 131414Z 31002KT M05/M09 A3035 RMK A01 T10491093  RH  072%=      5-min Rain = 0
KLE1 131415Z 31002KT M05/M09 A3035 RMK A01 T10491093  RH  071%=      5-min Rain = 0
KLE1 131416Z 30002KT M05/M09 A3035 RMK A01 T10491093  RH  071%=      5-min Rain = 0
KLE1 131417Z 29001KT M05/M09 A3035 RMK A01 T10481092  RH  071%=      5-min Rain = 0
KLE1 131418Z 26001KT M05/M09 A3035 RMK A01 T10471092  RH  071%=      5-min Rain = 0
KLE1 131419Z 25001KT M05/M09 A3035 RMK A01 T10471092  RH  071%=      5-min Rain = 0
KLE1 131420Z 24001KT M05/M09 A3035 RMK A01 T10461091  RH  071%=      5-min Rain = 0
KLE1 131421Z 23001KT M05/M09 A3035 RMK A01 T10451090  RH  071%=      5-min Rain = 0
KLE1 131422Z 20001KT M05/M09 A3035 RMK A01 T10451090  RH  071%=      5-min Rain = 0
KLE1 131423Z 20002KT M05/M09 A3035 RMK A01 T10451090  RH  071%=      5-min Rain = 0
KLE1 131424Z 20001KT M05/M09 A3035 RMK A01 T10451090  RH  071%=      5-min Rain = 0
KLE1 131425Z 20001KT M05/M09 A3035 RMK A01 T10451090  RH  071%=      5-min Rain = 0
KLE1 131426Z 21001KT M04/M09 A3036 RMK A01 T10441090  RH  071%=      5-min Rain = 0
KLE1 131427Z 22001KT M04/M09 A3036 RMK A01 T10441089  RH  071%=      5-min Rain = 0
KLE1 131428Z 21001KT M04/M09 A3036 RMK A01 T10441089  RH  071%=      5-min Rain = 0
KLE1 131429Z 21001KT M04/M09 A3036 RMK A01 T10431088  RH  071%=      5-min Rain = 0
KLE1 131430Z 21001KT M04/M09 A3036 RMK A01 T10431088  RH  071%=      5-min Rain = 0
KLE1 131431Z 20001KT M04/M09 A3036 RMK A01 T10421087  RH  071%=      5-min Rain = 0
KLE1 131432Z 20001KT M04/M09 A3036 RMK A01 T10421087  RH  071%=      5-min Rain = 0
KLE1 131433Z 20001KT M04/M09 A3036 RMK A01 T10421086  RH  071%=      5-min Rain = 0
KLE1 131434Z 20000KT M04/M09 A3036 RMK A01 T10411085  RH  071%=      5-min Rain = 0
KLE1 131435Z 19001KT M04/M09 A3036 RMK A01 T10401085  RH  071%=      5-min Rain = 0
KLE1 131436Z 18001KT M04/M08 A3036 RMK A01 T10391084  RH  071%=      5-min Rain = 0
KLE1 131437Z 19001KT M04/M08 A3036 RMK A01 T10391084  RH  071%=      5-min Rain = 0
KLE1 131438Z 18001KT M04/M08 A3036 RMK A01 T10381082  RH  071%=      5-min Rain = 0
KLE1 131439Z 16000KT M04/M08 A3036 RMK A01 T10371082  RH  071%=      5-min Rain = 0
KLE1 131440Z 11000KT M04/M08 A3036 RMK A01 T10361081  RH  071%=      5-min Rain = 0
KLE1 131441Z 15001KT M04/M08 A3036 RMK A01 T10351081  RH  071%=      5-min Rain = 0
KLE1 131442Z 13001KT M03/M08 A3036 RMK A01 T10341080  RH  071%=      5-min Rain = 0
KLE1 131443Z 13001KT M03/M08 A3036 RMK A01 T10331078  RH  071%=      5-min Rain = 0
KLE1 131444Z 13001KT M03/M08 A3036 RMK A01 T10311077  RH  070%=      5-min Rain = 0
KLE1 131445Z 14001KT M03/M08 A3036 RMK A01 T10301077  RH  070%=      5-min Rain = 0
KLE1 131446Z 14001KT M03/M08 A3036 RMK A01 T10301078  RH  070%=      5-min Rain = 0
KLE1 131447Z 14001KT M03/M08 A3036 RMK A01 T10291078  RH  069%=      5-min Rain = 0
KLE1 131448Z 15002KT M03/M08 A3036 RMK A01 T10291078  RH  069%=      5-min Rain = 0
KLE1 131449Z 16001KT M03/M08 A3036 RMK A01 T10291078  RH  069%=      5-min Rain = 0
KLE1 131450Z 16001KT M03/M08 A3036 RMK A01 T10281078  RH  069%=      5-min Rain = 0
KLE1 131451Z 14001KT M03/M08 A3036 RMK A01 T10281077  RH  069%=      5-min Rain = 0
KLE1 131452Z 14001KT M03/M08 A3036 RMK A01 T10271077  RH  069%=      5-min Rain = 0
KLE1 131453Z 15001KT M03/M08 A3036 RMK A01 T10271077  RH  068%=      5-min Rain = 0
KLE1 131454Z 16001KT M03/M08 A3036 RMK A01 T10271078  RH  068%=      5-min Rain = 0
KLE1 131455Z 16001KT M03/M08 A3036 RMK A01 T10271078  RH  068%=      5-min Rain = 0
KLE1 131456Z 15001KT M03/M08 A3036 RMK A01 T10261077  RH  068%=      5-min Rain = 0
KLE1 131457Z 15001KT M03/M08 A3036 RMK A01 T10261076  RH  068%=      5-min Rain = 0
KLE1 131458Z 17001KT M03/M08 A3036 RMK A01 T10261077  RH  068%=      5-min Rain = 0
KLE1 131459Z 16002KT M03/M08 A3036 RMK A01 T10251076  RH  068%=      5-min Rain = 0
KLE1 131500Z 16002KT M02/M08 A3036 RMK A01 T10241076  RH  068%=      5-min Rain = 0
KLE1 131501Z 16002KT M02/M08 A3036 RMK A01 T10241076  RH  067%=      5-min Rain = 0
KLE1 131502Z 14002KT M02/M08 A3036 RMK A01 T10241076  RH  067%=      5-min Rain = 0
KLE1 131503Z 14002KT M02/M08 A3036 RMK A01 T10231076  RH  067%=      5-min Rain = 0
KLE1 131504Z 14001KT M02/M08 A3036 RMK A01 T10231076  RH  067%=      5-min Rain = 0
KLE1 131505Z 14002KT M02/M07 A3036 RMK A01 T10221074  RH  068%=      5-min Rain = 0
KLE1 131506Z 15002KT M02/M07 A3037 RMK A01 T10221073  RH  068%=      5-min Rain = 0
KLE1 131507Z 16002KT M02/M08 A3037 RMK A01 T10211075  RH  067%=      5-min Rain = 0
KLE1 131508Z 15001KT M02/M08 A3037 RMK A01 T10211075  RH  067%=      5-min Rain = 0
KLE1 131509Z 13001KT M02/M07 A3037 RMK A01 T10211073  RH  067%=      5-min Rain = 0
KLE1 131510Z 16000KT M02/M07 A3037 RMK A01 T10211073  RH  067%=      5-min Rain = 0
KLE1 131511Z 13001KT M02/M07 A3037 RMK A01 T10211073  RH  067%=      5-min Rain = 0
KLE1 131512Z 15002KT M02/M07 A3037 RMK A01 T10191072  RH  067%=      5-min Rain = 0
KLE1 131513Z 13002KT M02/M07 A3037 RMK A01 T10191073  RH  066%=      5-min Rain = 0
KLE1 131514Z 11002KT M02/M07 A3037 RMK A01 T10171073  RH  066%=      5-min Rain = 0
KLE1 131515Z 12003KT M02/M07 A3037 RMK A01 T10171072  RH  066%=      5-min Rain = 0
KLE1 131516Z 11003KT M02/M07 A3037 RMK A01 T10181072  RH  066%=      5-min Rain = 0
KLE1 131517Z 11002KT M02/M07 A3037 RMK A01 T10181072  RH  066%=      5-min Rain = 0
KLE1 131518Z 10002KT M02/M07 A3037 RMK A01 T10181072  RH  067%=      5-min Rain = 0
KLE1 131519Z 11002KT M02/M07 A3037 RMK A01 T10181072  RH  067%=      5-min Rain = 0
KLE1 131520Z 11002KT M02/M07 A3037 RMK A01 T10181073  RH  066%=      5-min Rain = 0
KLE1 131521Z 08002KT M02/M07 A3036 RMK A01 T10181073  RH  066%=      5-min Rain = 0
KLE1 131522Z 10002KT M02/M07 A3036 RMK A01 T10181074  RH  065%=      5-min Rain = 0
KLE1 131523Z 10003KT M02/M07 A3036 RMK A01 T10171073  RH  065%=      5-min Rain = 0
KLE1 131524Z 11002KT M02/M07 A3036 RMK A01 T10161074  RH  065%=      5-min Rain = 0
KLE1 131525Z 10003KT M02/M07 A3036 RMK A01 T10161074  RH  065%=      5-min Rain = 0
KLE1 131526Z 10003KT M02/M08 A3036 RMK A01 T10171075  RH  065%=      5-min Rain = 0
KLE1 131527Z 10002KT M02/M08 A3036 RMK A01 T10171075  RH  065%=      5-min Rain = 0
KLE1 131528Z 12002KT M02/M08 A3037 RMK A01 T10181075  RH  065%=      5-min Rain = 0
KLE1 131529Z 12002KT M02/M08 A3037 RMK A01 T10181075  RH  065%=      5-min Rain = 0
KLE1 131530Z 11003KT M02/M07 A3037 RMK A01 T10171074  RH  065%=      5-min Rain = 0
KLE1 131531Z 10003KT M02/M07 A3037 RMK A01 T10171074  RH  065%=      5-min Rain = 0
KLE1 131532Z 11003KT M02/M07 A3037 RMK A01 T10161074  RH  065%=      5-min Rain = 0
KLE1 131533Z 11003KT M02/M07 A3037 RMK A01 T10151073  RH  065%=      5-min Rain = 0
KLE1 131534Z 10002KT M02/M07 A3036 RMK A01 T10151074  RH  064%=      5-min Rain = 0
KLE1 131535Z 09002KT M02/M07 A3036 RMK A01 T10151074  RH  064%=      5-min Rain = 0
KLE1 131536Z 11002KT M01/M07 A3037 RMK A01 T10141071  RH  065%=      5-min Rain = 0
KLE1 131537Z 11002KT M01/M07 A3037 RMK A01 T10131071  RH  064%=      5-min Rain = 0
KLE1 131538Z 09002KT M01/M07 A3037 RMK A01 T10121071  RH  064%=      5-min Rain = 0
KLE1 131539Z 10002KT M01/M07 A3037 RMK A01 T10111071  RH  063%=      5-min Rain = 0
KLE1 131540Z 13002KT M01/M07 A3037 RMK A01 T10101072  RH  063%=      5-min Rain = 0
KLE1 131541Z 10001KT M01/M07 A3037 RMK A01 T10081070  RH  063%=      5-min Rain = 0
KLE1 131542Z 11003KT M01/M07 A3037 RMK A01 T10061070  RH  062%=      5-min Rain = 0
KLE1 131543Z 11001KT M01/M07 A3037 RMK A01 T10061070  RH  062%=      5-min Rain = 0
KLE1 131544Z 13002KT M01/M07 A3037 RMK A01 T10051070  RH  061%=      5-min Rain = 0
KLE1 131545Z 14003KT M01/M07 A3037 RMK A01 T10051070  RH  061%=      5-min Rain = 0
KLE1 131546Z 15002KT M00/M07 A3037 RMK A01 T10041070  RH  061%=      5-min Rain = 0
KLE1 131547Z 15003KT M00/M07 A3037 RMK A01 T10031067  RH  062%=      5-min Rain = 0
KLE1 131548Z 13002KT M00/M07 A3037 RMK A01 T10031067  RH  062%=      5-min Rain = 0
KLE1 131549Z 13002KT M00/M07 A3037 RMK A01 T10021067  RH  062%=      5-min Rain = 0
KLE1 131550Z 15002KT M00/M07 A3037 RMK A01 T10021066  RH  062%=      5-min Rain = 0
KLE1 131551Z 14003KT M00/M07 A3037 RMK A01 T10011066  RH  061%=      5-min Rain = 0
KLE1 131552Z 13003KT 00/M07 A3037 RMK A01 T00011065  RH  061%=      5-min Rain = 0
KLE1 131553Z 14001KT 00/M06 A3037 RMK A01 T00021064  RH  061%=      5-min Rain = 0
KLE1 131554Z 14002KT 00/M07 A3037 RMK A01 T00031065  RH  061%=      5-min Rain = 0
KLE1 131555Z 12003KT 00/M07 A3037 RMK A01 T00021066  RH  060%=      5-min Rain = 0
KLE1 131556Z 14003KT 00/M07 A3037 RMK A01 T00011066  RH  061%=      5-min Rain = 0
KLE1 131557Z 14003KT 00/M06 A3037 RMK A01 T00011064  RH  062%=      5-min Rain = 0
KLE1 131558Z 16002KT 00/M06 A3037 RMK A01 T00011063  RH  062%=      5-min Rain = 0
KLE1 131559Z 13002KT 00/M06 A3037 RMK A01 T00021063  RH  062%=      5-min Rain = 0
KLE1 131600Z 17003KT 01/M06 A3038 RMK A01 T00051061  RH  062%=      5-min Rain = 0
KLE1 131601Z 14003KT 01/M06 A3038 RMK A01 T00061062  RH  060%=      5-min Rain = 0
KLE1 131602Z 12003KT 01/M06 A3038 RMK A01 T00071063  RH  060%=      5-min Rain = 0
KLE1 131603Z 15004KT 01/M06 A3038 RMK A01 T00091063  RH  059%=      5-min Rain = 0
KLE1 131604Z 16004KT 01/M06 A3038 RMK A01 T00091061  RH  060%=      5-min Rain = 0
KLE1 131605Z 14003KT 01/M06 A3038 RMK A01 T00071061  RH  060%=      5-min Rain = 0
KLE1 131606Z 15004KT 01/M06 A3038 RMK A01 T00071061  RH  061%=      5-min Rain = 0
KLE1 131607Z 14003KT 01/M06 A3038 RMK A01 T00061061  RH  061%=      5-min Rain = 0
KLE1 131608Z 14004KT 01/M06 A3038 RMK A01 T00061061  RH  061%=      5-min Rain = 0
KLE1 131609Z 13004KT 01/M06 A3038 RMK A01 T00061061  RH  061%=      5-min Rain = 0
KLE1 131610Z 15004KT 01/M06 A3038 RMK A01 T00071062  RH  060%=      5-min Rain = 0
KLE1 131611Z 14003KT 01/M06 A3038 RMK A01 T00071062  RH  060%=      5-min Rain = 0
KLE1 131612Z 15003KT 01/M06 A3038 RMK A01 T00091060  RH  060%=      5-min Rain = 0
KLE1 131613Z 16003KT 01/M06 A3038 RMK A01 T00111059  RH  060%=      5-min Rain = 0
KLE1 131614Z 15003KT 01/M06 A3038 RMK A01 T00121059  RH  059%=      5-min Rain = 0
KLE1 131615Z 19001KT 01/M06 A3038 RMK A01 T00131057  RH  059%=      5-min Rain = 0
KLE1 131616Z 20003KT 02/M06 A3038 RMK A01 T00151057  RH  059%=      5-min Rain = 0
KLE1 131617Z 19002KT 02/M06 A3038 RMK A01 T00151059  RH  058%=      5-min Rain = 0
KLE1 131618Z 19004KT 02/M06 A3038 RMK A01 T00151059  RH  058%=      5-min Rain = 0
KLE1 131619Z 17005KT 02/M06 A3038 RMK A01 T00151059  RH  058%=      5-min Rain = 0
KLE1 131620Z 18003KT 02/M06 A3038 RMK A01 T00151060  RH  058%=      5-min Rain = 0
KLE1 131621Z 18003KT 01/M06 A3038 RMK A01 T00141061  RH  057%=      5-min Rain = 0
KLE1 131622Z 17004KT 01/M06 A3038 RMK A01 T00141062  RH  057%=      5-min Rain = 0
KLE1 131623Z 18004KT 02/M06 A3038 RMK A01 T00151061  RH  057%=      5-min Rain = 0
KLE1 131624Z 20005KT 02/M06 A3038 RMK A01 T00181059  RH  057%=      5-min Rain = 0
KLE1 131625Z 19005KT 02/M06 A3038 RMK A01 T00191057  RH  057%=      5-min Rain = 0
KLE1 131626Z 17004KT 02/M06 A3038 RMK A01 T00191058  RH  057%=      5-min Rain = 0
KLE1 131627Z 18006KT 02/M06 A3038 RMK A01 T00201057  RH  057%=      5-min Rain = 0
KLE1 131628Z 19005KT 02/M06 A3038 RMK A01 T00201058  RH  056%=      5-min Rain = 0
KLE1 131629Z 18005KT 02/M06 A3038 RMK A01 T00201058  RH  056%=      5-min Rain = 0
KLE1 131630Z 20004KT 02/M06 A3038 RMK A01 T00201058  RH  056%=      5-min Rain = 0
KLE1 131631Z 21004KT 02/M06 A3038 RMK A01 T00231055  RH  056%=      5-min Rain = 0
KLE1 131632Z 19004KT 02/M06 A3038 RMK A01 T00241057  RH  055%=      5-min Rain = 0
KLE1 131633Z 20002KT 03/M06 A3038 RMK A01 T00251057  RH  055%=      5-min Rain = 0
KLE1 131634Z 12002KT 03/M06 A3038 RMK A01 T00271056  RH  054%=      5-min Rain = 0
KLE1 131635Z 18003KT 03/M05 A3038 RMK A01 T00311054  RH  053%=      5-min Rain = 0
KLE1 131636Z 16003KT 03/M06 A3038 RMK A01 T00331055  RH  053%=      5-min Rain = 0
KLE1 131637Z 13003KT 03/M06 A3038 RMK A01 T00321057  RH  052%=      5-min Rain = 0
KLE1 131638Z 14004KT 03/M06 A3038 RMK A01 T00321056  RH  052%=      5-min Rain = 0
KLE1 131639Z 17003KT 03/M06 A3038 RMK A01 T00311056  RH  053%=      5-min Rain = 0
KLE1 131640Z 17002KT 03/M06 A3038 RMK A01 T00311055  RH  053%=      5-min Rain = 0
KLE1 131641Z 18003KT 03/M05 A3038 RMK A01 T00331053  RH  053%=      5-min Rain = 0
KLE1 131642Z 20003KT 04/M05 A3038 RMK A01 T00351051  RH  053%=      5-min Rain = 0
KLE1 131643Z 18004KT 04/M05 A3038 RMK A01 T00371051  RH  053%=      5-min Rain = 0
KLE1 131644Z 23003KT 04/M05 A3038 RMK A01 T00381052  RH  052%=      5-min Rain = 0
KLE1 131645Z 16003KT 04/M05 A3038 RMK A01 T00391052  RH  051%=      5-min Rain = 0
KLE1 131646Z 17005KT 04/M05 A3038 RMK A01 T00391048  RH  053%=      5-min Rain = 0
KLE1 131647Z 19005KT 04/M05 A3038 RMK A01 T00401046  RH  053%=      5-min Rain = 0
KLE1 131648Z 19005KT 04/M05 A3038 RMK A01 T00401045  RH  054%=      5-min Rain = 0
KLE1 131649Z 20006KT 04/M05 A3038 RMK A01 T00391046  RH  054%=      5-min Rain = 0
KLE1 131650Z 18005KT 04/M05 A3038 RMK A01 T00371047  RH  054%=      5-min Rain = 0
KLE1 131651Z 17005KT 04/M04 A3038 RMK A01 T00391044  RH  055%=      5-min Rain = 0
KLE1 131652Z 18005KT 04/M04 A3038 RMK A01 T00421043  RH  054%=      5-min Rain = 0
KLE1 131653Z 18006KT 04/M04 A3037 RMK A01 T00431043  RH  053%=      5-min Rain = 0
KLE1 131654Z 17006KT 05/M04 A3037 RMK A01 T00491037  RH  054%=      5-min Rain = 0
KLE1 131655Z 17006KT 05/M04 A3037 RMK A01 T00531038  RH  052%=      5-min Rain = 0
KLE1 131656Z 18007KT 05/M04 A3037 RMK A01 T00541040  RH  051%=      5-min Rain = 0
KLE1 131657Z 17007KT 05/M04 A3037 RMK A01 T00521041  RH  051%=      5-min Rain = 0
KLE1 131658Z 16008KT 05/M04 A3037 RMK A01 T00531041  RH  051%=      5-min Rain = 0
KLE1 131659Z 17008KT 05/M04 A3037 RMK A01 T00491043  RH  051%=      5-min Rain = 0
KLE1 131700Z 17009KT 05/M04 A3037 RMK A01 T00471043  RH  052%=      5-min Rain = 0
KLE1 131701Z 18008KT 05/M04 A3037 RMK A01 T00471041  RH  053%=      5-min Rain = 0
KLE1 131702Z 17008KT 05/M04 A3037 RMK A01 T00471042  RH  053%=      5-min Rain = 0
KLE1 131703Z 18007KT 05/M04 A3037 RMK A01 T00491038  RH  053%=      5-min Rain = 0
KLE1 131704Z 17007KT 05/M04 A3037 RMK A01 T00511038  RH  053%=      5-min Rain = 0
KLE1 131705Z 18007KT 05/M04 A3037 RMK A01 T00491042  RH  052%=      5-min Rain = 0
KLE1 131706Z 19009KT 05/M04 A3037 RMK A01 T00461039  RH  054%=      5-min Rain = 0
KLE1 131707Z 21008KT 05/M04 A3037 RMK A01 T00461037  RH  055%=      5-min Rain = 0
KLE1 131708Z 21007KT 05/M04 A3037 RMK A01 T00471036  RH  055%=      5-min Rain = 0
KLE1 131709Z 20005KT 05/M04 A3037 RMK A01 T00481036  RH  054%=      5-min Rain = 0
KLE1 131710Z 20005KT 05/M03 A3037 RMK A01 T00531034  RH  054%=      5-min Rain = 0
KLE1 131711Z 19007KT 06/M03 A3037 RMK A01 T00561032  RH  053%=      5-min Rain = 0
KLE1 131712Z 18005KT 06/M03 A3037 RMK A01 T00591030  RH  053%=      5-min Rain = 0
KLE1 131713Z 18006KT 06/M03 A3037 RMK A01 T00601032  RH  052%=      5-min Rain = 0
KLE1 131714Z 17006KT 06/M03 A3037 RMK A01 T00601033  RH  051%=      5-min Rain = 0
KLE1 131715Z 20005KT 06/M03 A3037 RMK A01 T00601031  RH  052%=      5-min Rain = 0
KLE1 131716Z 20005KT 06/M03 A3037 RMK A01 T00611034  RH  051%=      5-min Rain = 0
KLE1 131717Z 19004KT 06/M04 A3037 RMK A01 T00581036  RH  051%=      5-min Rain = 0
KLE1 131718Z 18004KT 06/M03 A3037 RMK A01 T00581034  RH  051%=      5-min Rain = 0
KLE1 131719Z 20005KT 06/M04 A3037 RMK A01 T00561036  RH  052%=      5-min Rain = 0
KLE1 131720Z 20003KT 06/M04 A3037 RMK A01 T00551036  RH  052%=      5-min Rain = 0
KLE1 131721Z 18005KT 06/M03 A3036 RMK A01 T00551034  RH  053%=      5-min Rain = 0
KLE1 131722Z 19004KT 06/M03 A3037 RMK A01 T00571032  RH  053%=      5-min Rain = 0
KLE1 131723Z 17003KT 06/M03 A3037 RMK A01 T00581032  RH  052%=      5-min Rain = 0
KLE1 131724Z 15005KT 06/M03 A3037 RMK A01 T00611030  RH  052%=      5-min Rain = 0
KLE1 131725Z 19005KT 06/M03 A3037 RMK A01 T00611032  RH  051%=      5-min Rain = 0
KLE1 131726Z 21004KT 06/M03 A3037 RMK A01 T00611032  RH  051%=      5-min Rain = 0
KLE1 131727Z 19004KT 06/M03 A3037 RMK A01 T00611031  RH  052%=      5-min Rain = 0
KLE1 131728Z 19004KT 06/M03 A3037 RMK A01 T00621031  RH  051%=      5-min Rain = 0
KLE1 131729Z 17002KT 06/M03 A3037 RMK A01 T00601032  RH  052%=      5-min Rain = 0
KLE1 131730Z 15003KT 06/M03 A3037 RMK A01 T00601032  RH  052%=      5-min Rain = 0
KLE1 131731Z 15004KT 06/M03 A3037 RMK A01 T00611032  RH  051%=      5-min Rain = 0
KLE1 131732Z 16004KT 06/M03 A3036 RMK A01 T00621031  RH  051%=      5-min Rain = 0
KLE1 131733Z 17004KT 06/M03 A3036 RMK A01 T00631030  RH  051%=      5-min Rain = 0
KLE1 131734Z 18003KT 07/M03 A3036 RMK A01 T00651027  RH  052%=      5-min Rain = 0
KLE1 131735Z 13001KT 07/M03 A3036 RMK A01 T00681026  RH  051%=      5-min Rain = 0
KLE1 131736Z 15001KT 07/M03 A3036 RMK A01 T00701027  RH  050%=      5-min Rain = 0
KLE1 131737Z 15003KT 07/M03 A3036 RMK A01 T00721025  RH  050%=      5-min Rain = 0
KLE1 131738Z 19002KT 07/M03 A3036 RMK A01 T00721026  RH  050%=      5-min Rain = 0
KLE1 131739Z 20003KT 07/M03 A3036 RMK A01 T00721026  RH  050%=      5-min Rain = 0
KLE1 131740Z 19003KT 07/M02 A3036 RMK A01 T00721024  RH  050%=      5-min Rain = 0
KLE1 131741Z 19001KT 07/M02 A3035 RMK A01 T00741021  RH  051%=      5-min Rain = 0
KLE1 131742Z 22001KT 08/M02 A3035 RMK A01 T00761019  RH  051%=      5-min Rain = 0
KLE1 131743Z 21003KT 08/M02 A3035 RMK A01 T00761019  RH  051%=      5-min Rain = 0
KLE1 131744Z 20003KT 08/M02 A3035 RMK A01 T00761018  RH  051%=      5-min Rain = 0
KLE1 131745Z 19002KT 08/M02 A3035 RMK A01 T00761018  RH  052%=      5-min Rain = 0
KLE1 131746Z 19003KT 08/M02 A3035 RMK A01 T00781018  RH  051%=      5-min Rain = 0
KLE1 131747Z 17001KT 08/M02 A3035 RMK A01 T00801017  RH  050%=      5-min Rain = 0
KLE1 131748Z 10003KT 08/M02 A3035 RMK A01 T00831017  RH  049%=      5-min Rain = 0
KLE1 131749Z 08003KT 09/M02 A3035 RMK A01 T00851021  RH  047%=      5-min Rain = 0
KLE1 131750Z 09004KT 09/M02 A3035 RMK A01 T00851022  RH  047%=      5-min Rain = 0
KLE1 131751Z 09003KT 09/M02 A3035 RMK A01 T00851021  RH  047%=      5-min Rain = 0
KLE1 131752Z 07005KT 09/M02 A3034 RMK A01 T00861020  RH  047%=      5-min Rain = 0
KLE1 131753Z 07004KT 09/M02 A3034 RMK A01 T00871020  RH  047%=      5-min Rain = 0
KLE1 131754Z 07003KT 09/M02 A3034 RMK A01 T00901017  RH  047%=      5-min Rain = 0
KLE1 131755Z 08003KT 09/M02 A3034 RMK A01 T00931016  RH  046%=      5-min Rain = 0
KLE1 131756Z 09003KT 09/M02 A3034 RMK A01 T00941015  RH  046%=      5-min Rain = 0
KLE1 131757Z 13001KT 09/M01 A3034 RMK A01 T00931011  RH  048%=      5-min Rain = 0
KLE1 131758Z 15002KT 09/M01 A3034 RMK A01 T00931009  RH  049%=      5-min Rain = 0
KLE1 131759Z 12002KT 09/M01 A3034 RMK A01 T00941009  RH  049%=      5-min Rain = 0
KLE1 131800Z 14003KT 09/M01 A3034 RMK A01 T00941009  RH  048%=      5-min Rain = 0
KLE1 131801Z 15003KT 09/M01 A3033 RMK A01 T00941009  RH  049%=      5-min Rain = 0
KLE1 131802Z 16004KT 10/M01 A3033 RMK A01 T00951005  RH  050%=      5-min Rain = 0
KLE1 131803Z 19006KT 10/01 A3034 RMK A01 T00980007  RH  053%=      5-min Rain = 0
KLE1 131804Z 19007KT 10/02 A3033 RMK A01 T00990015  RH  056%=      5-min Rain = 0
KLE1 131805Z 19008KT 10/02 A3033 RMK A01 T01020017  RH  055%=      5-min Rain = 0
KLE1 131806Z 20010KT 11/02 A3033 RMK A01 T01070019  RH  054%=      5-min Rain = 0
KLE1 131807Z 19012KT 11/02 A3033 RMK A01 T01090018  RH  053%=      5-min Rain = 0
KLE1 131808Z 17011KT 11/02 A3033 RMK A01 T01140020  RH  052%=      5-min Rain = 0
KLE1 131809Z 17011KT 12/02 A3033 RMK A01 T01170019  RH  051%=      5-min Rain = 0
KLE1 131810Z 17010KT 11/02 A3033 RMK A01 T01140016  RH  051%=      5-min Rain = 0
KLE1 131811Z 17013KT 11/02 A3033 RMK A01 T01130016  RH  051%=      5-min Rain = 0
KLE1 131812Z 16011KT 11/02 A3033 RMK A01 T01110016  RH  052%=      5-min Rain = 0
KLE1 131813Z 17009KT 11/02 A3033 RMK A01 T01100015  RH  052%=      5-min Rain = 0
KLE1 131814Z 17010KT 11/02 A3033 RMK A01 T01080015  RH  052%=      5-min Rain = 0
KLE1 131815Z 17008KT 11/02 A3033 RMK A01 T01080015  RH  053%=      5-min Rain = 0
KLE1 131816Z 19011G16KT 11/02 A3033 RMK A01 T01070015  RH  053%=      5-min Rain = 0
KLE1 131817Z 18012KT 11/01 A3033 RMK A01 T01070013  RH  052%=      5-min Rain = 0
KLE1 131818Z 18010KT 11/01 A3032 RMK A01 T01060013  RH  052%=      5-min Rain = 0
KLE1 131819Z 18010KT 11/01 A3032 RMK A01 T01060013  RH  052%=      5-min Rain = 0
KLE1 131820Z 18013KT 11/01 A3032 RMK A01 T01060014  RH  053%=      5-min Rain = 0
KLE1 131821Z 17013KT 11/01 A3032 RMK A01 T01060012  RH  052%=      5-min Rain = 0
KLE1 131822Z 16009KT 10/01 A3032 RMK A01 T01040011  RH  052%=      5-min Rain = 0
KLE1 131823Z 16010KT 10/01 A3032 RMK A01 T01030012  RH  053%=      5-min Rain = 0
KLE1 131824Z 18011KT 11/01 A3032 RMK A01 T01060013  RH  053%=      5-min Rain = 0
KLE1 131825Z 19011KT 11/01 A3032 RMK A01 T01090013  RH  052%=      5-min Rain = 0
KLE1 131826Z 19011KT 11/01 A3032 RMK A01 T01110012  RH  050%=      5-min Rain = 0
KLE1 131827Z 18010KT 11/01 A3032 RMK A01 T01090010  RH  050%=      5-min Rain = 0
KLE1 131828Z 16012KT 11/01 A3032 RMK A01 T01080010  RH  051%=      5-min Rain = 0
KLE1 131829Z 18012KT 11/01 A3031 RMK A01 T01070010  RH  051%=      5-min Rain = 0
KLE1 131830Z 18013KT 11/01 A3031 RMK A01 T01070010  RH  051%=      5-min Rain = 0
KLE1 131831Z 18012KT 11/01 A3031 RMK A01 T01060010  RH  051%=      5-min Rain = 0
KLE1 131832Z 18014KT 11/01 A3031 RMK A01 T01080011  RH  051%=      5-min Rain = 0
KLE1 131833Z 17011KT 11/01 A3031 RMK A01 T01080009  RH  051%=      5-min Rain = 0
KLE1 131834Z 18013KT 11/01 A3031 RMK A01 T01070009  RH  051%=      5-min Rain = 0
KLE1 131835Z 17012KT 11/01 A3031 RMK A01 T01060008  RH  051%=      5-min Rain = 0
KLE1 131836Z 19012KT 11/01 A3031 RMK A01 T01080009  RH  050%=      5-min Rain = 0
KLE1 131837Z 21010KT 11/01 A3031 RMK A01 T01110008  RH  049%=      5-min Rain = 0
KLE1 131838Z 21013KT 11/01 A3031 RMK A01 T01120006  RH  048%=      5-min Rain = 0
KLE1 131839Z 20011KT 11/00 A3031 RMK A01 T01090004  RH  048%=      5-min Rain = 0
KLE1 131840Z 20009KT 11/01 A3031 RMK A01 T01080005  RH  049%=      5-min Rain = 0
KLE1 131841Z 21011KT 11/01 A3031 RMK A01 T01100007  RH  049%=      5-min Rain = 0
KLE1 131842Z 21012KT 11/01 A3031 RMK A01 T01100005  RH  048%=      5-min Rain = 0
KLE1 131843Z 19010KT 11/01 A3031 RMK A01 T01110006  RH  048%=      5-min Rain = 0
KLE1 131844Z 21012KT 12/00 A3031 RMK A01 T01150004  RH  046%=      5-min Rain = 0
KLE1 131845Z 21012KT 12/00 A3031 RMK A01 T01150001  RH  045%=      5-min Rain = 0
KLE1 131846Z 22009KT 12/00 A3031 RMK A01 T01150001  RH  045%=      5-min Rain = 0
KLE1 131847Z 22008KT 12/M00 A303 RMK A01 T01151001  RH  045%=      5-min Rain = 0
KLE1 131848Z 21009G15KT 11/00 A303 RMK A01 T01100001  RH  047%=      5-min Rain = 0
KLE1 131849Z 16009KT 11/01 A303 RMK A01 T01070006  RH  050%=      5-min Rain = 0
KLE1 131850Z 18012KT 11/01 A303 RMK A01 T01090008  RH  050%=      5-min Rain = 0
KLE1 131851Z 20012KT 11/01 A303 RMK A01 T01130008  RH  048%=      5-min Rain = 0
KLE1 131852Z 20012KT 11/01 A303 RMK A01 T01130006  RH  048%=      5-min Rain = 0
KLE1 131853Z 19012KT 11/01 A303 RMK A01 T01130006  RH  048%=      5-min Rain = 0
KLE1 131854Z 18011KT 11/01 A303 RMK A01 T01100005  RH  048%=      5-min Rain = 0
KLE1 131855Z 19007KT 11/00 A303 RMK A01 T01090004  RH  048%=      5-min Rain = 0
KLE1 131856Z 20006KT 11/01 A303 RMK A01 T01070005  RH  049%=      5-min Rain = 0
KLE1 131857Z 20005KT 11/01 A303 RMK A01 T01090006  RH  049%=      5-min Rain = 0
KLE1 131858Z 20008G13KT 11/01 A303 RMK A01 T01090005  RH  049%=      5-min Rain = 0
KLE1 131859Z 21011KT 11/01 A303 RMK A01 T01130007  RH  048%=      5-min Rain = 0
KLE1 131900Z 22011KT 12/00 A303 RMK A01 T01150004  RH  047%=      5-min Rain = 0
KLE1 131901Z 22009KT 12/01 A303 RMK A01 T01160006  RH  047%=      5-min Rain = 0
KLE1 131902Z 22006KT 12/01 A303 RMK A01 T01180007  RH  046%=      5-min Rain = 0
KLE1 131903Z 23004KT 12/00 A303 RMK A01 T01160002  RH  046%=      5-min Rain = 0
KLE1 131904Z 23005KT 11/00 A303 RMK A01 T01120003  RH  047%=      5-min Rain = 0
KLE1 131905Z 21006KT 11/01 A3029 RMK A01 T01110007  RH  049%=      5-min Rain = 0
KLE1 131906Z 19007KT 11/01 A3029 RMK A01 T01130010  RH  049%=      5-min Rain = 0
KLE1 131907Z 19006KT 11/01 A3029 RMK A01 T01130010  RH  049%=      5-min Rain = 0
KLE1 131908Z 20008KT 12/01 A3029 RMK A01 T01150011  RH  049%=      5-min Rain = 0
KLE1 131909Z 21009KT 12/01 A3029 RMK A01 T01180009  RH  047%=      5-min Rain = 0
KLE1 131910Z 22009KT 12/01 A3029 RMK A01 T01190006  RH  046%=      5-min Rain = 0
KLE1 131911Z 21007KT 12/00 A3029 RMK A01 T01170004  RH  046%=      5-min Rain = 0
KLE1 131912Z 22008KT 12/01 A3029 RMK A01 T01170007  RH  047%=      5-min Rain = 0
KLE1 131913Z 21006KT 12/01 A3029 RMK A01 T01200008  RH  046%=      5-min Rain = 0
KLE1 131914Z 23007KT 12/01 A3029 RMK A01 T01210009  RH  046%=      5-min Rain = 0
KLE1 131915Z 21007KT 12/01 A3029 RMK A01 T01230010  RH  046%=      5-min Rain = 0
KLE1 131916Z 21008KT 12/01 A3029 RMK A01 T01220007  RH  045%=      5-min Rain = 0
KLE1 131917Z 21009KT 12/01 A3029 RMK A01 T01200006  RH  045%=      5-min Rain = 0
KLE1 131918Z 22009KT 12/01 A3029 RMK A01 T01200005  RH  045%=      5-min Rain = 0
KLE1 131919Z 21010KT 12/01 A3029 RMK A01 T01200005  RH  045%=      5-min Rain = 0
KLE1 131920Z 21008G13KT 12/01 A3028 RMK A01 T01210006  RH  045%=      5-min Rain = 0
KLE1 131921Z 22010KT 12/01 A3028 RMK A01 T01240007  RH  045%=      5-min Rain = 0
KLE1 131922Z 22010KT 13/01 A3028 RMK A01 T01250007  RH  044%=      5-min Rain = 0
KLE1 131923Z 22009KT 12/01 A3028 RMK A01 T01220005  RH  045%=      5-min Rain = 0
KLE1 131924Z 22008KT 12/01 A3028 RMK A01 T01230008  RH  045%=      5-min Rain = 0
KLE1 131925Z 22007KT 12/01 A3028 RMK A01 T01220007  RH  045%=      5-min Rain = 0
KLE1 131926Z 22005KT 12/01 A3028 RMK A01 T01200007  RH  046%=      5-min Rain = 0
KLE1 131927Z 22004KT 12/01 A3028 RMK A01 T01180007  RH  047%=      5-min Rain = 0
KLE1 131928Z 22006KT 12/01 A3028 RMK A01 T01170007  RH  047%=      5-min Rain = 0
KLE1 131929Z 21004G9KT 12/01 A3028 RMK A01 T01180006  RH  046%=      5-min Rain = 0
KLE1 131930Z 19007KT 12/01 A3028 RMK A01 T01200009  RH  046%=      5-min Rain = 0
KLE1 131931Z 18010KT 13/01 A3028 RMK A01 T01250012  RH  046%=      5-min Rain = 0
KLE1 131932Z 17008KT 13/01 A3028 RMK A01 T01260010  RH  045%=      5-min Rain = 0
KLE1 131933Z 17008KT 12/01 A3028 RMK A01 T01240009  RH  045%=      5-min Rain = 0
KLE1 131934Z 17006KT 12/01 A3027 RMK A01 T01230011  RH  046%=      5-min Rain = 0
KLE1 131935Z 16007KT 13/01 A3027 RMK A01 T01260012  RH  045%=      5-min Rain = 0
KLE1 131936Z 18006KT 13/01 A3027 RMK A01 T01270010  RH  045%=      5-min Rain = 0
KLE1 131937Z 23007KT 13/01 A3027 RMK A01 T01270009  RH  044%=      5-min Rain = 0
KLE1 131938Z 22005KT 13/01 A3027 RMK A01 T01270009  RH  044%=      5-min Rain = 0
KLE1 131939Z 21004KT 13/01 A3027 RMK A01 T01250007  RH  044%=      5-min Rain = 0
KLE1 131940Z 18006KT 12/01 A3027 RMK A01 T01230008  RH  045%=      5-min Rain = 0
KLE1 131941Z 18008KT 13/01 A3027 RMK A01 T01270011  RH  045%=      5-min Rain = 0
KLE1 131942Z 19008KT 13/01 A3027 RMK A01 T01280011  RH  045%=      5-min Rain = 0
KLE1 131943Z 22004KT 13/01 A3027 RMK A01 T01270011  RH  045%=      5-min Rain = 0
KLE1 131944Z 16002KT 13/01 A3026 RMK A01 T01270011  RH  045%=      5-min Rain = 0
KLE1 131945Z 17004KT 13/01 A3026 RMK A01 T01290012  RH  045%=      5-min Rain = 0
KLE1 131946Z 16007KT 13/01 A3026 RMK A01 T01310012  RH  044%=      5-min Rain = 0
KLE1 131947Z 16012KT 13/01 A3026 RMK A01 T01320010  RH  043%=      5-min Rain = 0
KLE1 131948Z 15011KT 13/01 A3026 RMK A01 T01310009  RH  043%=      5-min Rain = 0
KLE1 131949Z 15011KT 13/01 A3026 RMK A01 T01300009  RH  043%=      5-min Rain = 0
KLE1 131950Z 15013KT 13/01 A3026 RMK A01 T01300008  RH  043%=      5-min Rain = 0
KLE1 131951Z 16009KT 13/01 A3026 RMK A01 T01280007  RH  044%=      5-min Rain = 0
KLE1 131952Z 15007G12KT 13/01 A3026 RMK A01 T01250008  RH  044%=      5-min Rain = 0
KLE1 131953Z 15010KT 13/01 A3026 RMK A01 T01250008  RH  045%=      5-min Rain = 0
KLE1 131954Z 16008KT 13/01 A3026 RMK A01 T01250008  RH  045%=      5-min Rain = 0
KLE1 131955Z 13007KT 13/01 A3026 RMK A01 T01280010  RH  045%=      5-min Rain = 0
KLE1 131956Z 15011KT 13/01 A3026 RMK A01 T01300010  RH  044%=      5-min Rain = 0
KLE1 131957Z 15009KT 13/01 A3026 RMK A01 T01310009  RH  043%=      5-min Rain = 0
KLE1 131958Z 17011KT 13/01 A3026 RMK A01 T01300009  RH  043%=      5-min Rain = 0
KLE1 131959Z 17012KT 13/01 A3026 RMK A01 T01310008  RH  043%=      5-min Rain = 0
KLE1 132000Z 17010G16KT 13/01 A3026 RMK A01 T01290007  RH  043%=      5-min Rain = 0
KLE1 132001Z 16013KT 13/01 A3026 RMK A01 T01270007  RH  044%=      5-min Rain = 0
KLE1 132002Z 15012KT 13/01 A3026 RMK A01 T01260007  RH  044%=      5-min Rain = 0
KLE1 132003Z 17010KT 13/01 A3026 RMK A01 T01260008  RH  044%=      5-min Rain = 0
KLE1 132004Z 16008KT 13/01 A3026 RMK A01 T01250008  RH  045%=      5-min Rain = 0
KLE1 132005Z 15009KT 13/01 A3026 RMK A01 T01280009  RH  044%=      5-min Rain = 0
KLE1 132006Z 15010KT 13/01 A3026 RMK A01 T01270007  RH  044%=      5-min Rain = 0
KLE1 132007Z 16011KT 13/01 A3026 RMK A01 T01260008  RH  044%=      5-min Rain = 0
KLE1 132008Z 16008KT 12/01 A3026 RMK A01 T01240008  RH  045%=      5-min Rain = 0
KLE1 132009Z 18008KT 12/01 A3026 RMK A01 T01240009  RH  045%=      5-min Rain = 0
KLE1 132010Z 17013KT 13/01 A3026 RMK A01 T01270010  RH  045%=      5-min Rain = 0
KLE1 132011Z 18013KT 13/01 A3026 RMK A01 T01280009  RH  044%=      5-min Rain = 0
KLE1 132012Z 18012KT 13/01 A3026 RMK A01 T01270009  RH  045%=      5-min Rain = 0
KLE1 132013Z 18014KT 13/01 A3026 RMK A01 T01280010  RH  045%=      5-min Rain = 0
KLE1 132014Z 17013KT 13/01 A3026 RMK A01 T01300010  RH  044%=      5-min Rain = 0
KLE1 132015Z 16014KT 13/01 A3026 RMK A01 T01310010  RH  044%=      5-min Rain = 0
KLE1 132016Z 16012KT 13/01 A3026 RMK A01 T01310010  RH  043%=      5-min Rain = 0
KLE1 132017Z 18015KT 13/01 A3026 RMK A01 T01330011  RH  043%=      5-min Rain = 0
KLE1 132018Z 19015KT 13/01 A3026 RMK A01 T01330010  RH  043%=      5-min Rain = 0
KLE1 132019Z 19011KT 13/01 A3026 RMK A01 T01310010  RH  044%=      5-min Rain = 0
KLE1 132020Z 19007KT 13/01 A3026 RMK A01 T01290010  RH  044%=      5-min Rain = 0
KLE1 132021Z 18008G14KT 13/01 A3026 RMK A01 T01290011  RH  045%=      5-min Rain = 0
KLE1 132022Z 18014KT 13/01 A3025 RMK A01 T01320012  RH  044%=      5-min Rain = 0
KLE1 132023Z 18008G13KT 13/01 A3025 RMK A01 T01290009  RH  044%=      5-min Rain = 0
KLE1 132024Z 17008KT 13/01 A3025 RMK A01 T01250009  RH  045%=      5-min Rain = 0
KLE1 132025Z 16012G17KT 13/01 A3025 RMK A01 T01270011  RH  045%=      5-min Rain = 0
KLE1 132026Z 18009KT 13/01 A3025 RMK A01 T01300012  RH  045%=      5-min Rain = 0
KLE1 132027Z 19008KT 13/01 A3025 RMK A01 T01320012  RH  044%=      5-min Rain = 0
KLE1 132028Z 16010KT 13/01 A3025 RMK A01 T01320012  RH  044%=      5-min Rain = 0
KLE1 132029Z 18008G13KT 13/01 A3025 RMK A01 T01330012  RH  044%=      5-min Rain = 0
KLE1 132030Z 16010KT 13/01 A3025 RMK A01 T01320011  RH  044%=      5-min Rain = 0
KLE1 132031Z 15012KT 13/01 A3025 RMK A01 T01330013  RH  044%=      5-min Rain = 0
KLE1 132032Z 15012KT 13/01 A3025 RMK A01 T01320011  RH  044%=      5-min Rain = 0
KLE1 132033Z 15012KT 13/01 A3025 RMK A01 T01310012  RH  044%=      5-min Rain = 0
KLE1 132034Z 16011KT 13/01 A3025 RMK A01 T01320012  RH  044%=      5-min Rain = 0
KLE1 132035Z 17010KT 13/01 A3025 RMK A01 T01330013  RH  044%=      5-min Rain = 0
KLE1 132036Z 16012KT 13/01 A3025 RMK A01 T01340013  RH  044%=      5-min Rain = 0
KLE1 132037Z 16008KT 13/01 A3025 RMK A01 T01340012  RH  043%=      5-min Rain = 0
KLE1 132038Z 16011G16KT 13/01 A3024 RMK A01 T01340012  RH  044%=      5-min Rain = 0
KLE1 132039Z 15014KT 14/01 A3024 RMK A01 T01360014  RH  043%=      5-min Rain = 0
KLE1 132040Z 16013KT 14/01 A3024 RMK A01 T01380014  RH  043%=      5-min Rain = 0
KLE1 132041Z 16014KT 14/01 A3024 RMK A01 T01380013  RH  042%=      5-min Rain = 0
KLE1 132042Z 18012KT 14/01 A3024 RMK A01 T01380012  RH  042%=      5-min Rain = 0
KLE1 132043Z 17012KT 14/01 A3024 RMK A01 T01380014  RH  043%=      5-min Rain = 0
KLE1 132044Z 16013KT 14/01 A3024 RMK A01 T01380013  RH  043%=      5-min Rain = 0
KLE1 132045Z 16014KT 14/02 A3024 RMK A01 T01410015  RH  042%=      5-min Rain = 0
KLE1 132046Z 17009KT 14/01 A3024 RMK A01 T01400013  RH  042%=      5-min Rain = 0
KLE1 132047Z 16008KT 14/01 A3024 RMK A01 T01380013  RH  042%=      5-min Rain = 0
KLE1 132048Z 16009KT 14/01 A3024 RMK A01 T01390014  RH  043%=      5-min Rain = 0
KLE1 132049Z 15014KT 14/01 A3024 RMK A01 T01400014  RH  042%=      5-min Rain = 0
KLE1 132050Z 15012KT 14/01 A3024 RMK A01 T01410014  RH  042%=      5-min Rain = 0
KLE1 132051Z 17010KT 14/02 A3024 RMK A01 T01420015  RH  042%=      5-min Rain = 0
KLE1 132052Z 18013KT 15/02 A3024 RMK A01 T01450016  RH  041%=      5-min Rain = 0
KLE1 132053Z 18012G17KT 14/01 A3024 RMK A01 T01440014  RH  041%=      5-min Rain = 0
KLE1 132054Z 17012KT 14/01 A3024 RMK A01 T01440014  RH  041%=      5-min Rain = 0
KLE1 132055Z 15013KT 14/01 A3024 RMK A01 T01440014  RH  041%=      5-min Rain = 0
KLE1 132056Z 16014KT 14/01 A3024 RMK A01 T01420014  RH  042%=      5-min Rain = 0
KLE1 132057Z 19014KT 14/02 A3024 RMK A01 T01430015  RH  042%=      5-min Rain = 0
KLE1 132058Z 19010KT 14/01 A3024 RMK A01 T01400013  RH  042%=      5-min Rain = 0
KLE1 132059Z 18010G17KT 14/02 A3024 RMK A01 T01400015  RH  043%=      5-min Rain = 0
KLE1 132100Z 16012KT 14/02 A3024 RMK A01 T01440016  RH  042%=      5-min Rain = 0
KLE1 132101Z 16011KT 15/02 A3024 RMK A01 T01460015  RH  041%=      5-min Rain = 0
KLE1 132102Z 16012KT 15/01 A3024 RMK A01 T01450014  RH  041%=      5-min Rain = 0
KLE1 132103Z 16012G17KT 14/01 A3024 RMK A01 T01430014  RH  041%=      5-min Rain = 0
KLE1 132104Z 16016KT 14/01 A3024 RMK A01 T01440014  RH  041%=      5-min Rain = 0
KLE1 132105Z 16015KT 14/01 A3024 RMK A01 T01440013  RH  041%=      5-min Rain = 0
KLE1 132106Z 16011KT 14/01 A3024 RMK A01 T01420013  RH  041%=      5-min Rain = 0
KLE1 132107Z 17012KT 14/02 A3024 RMK A01 T01440015  RH  042%=      5-min Rain = 0
KLE1 132108Z 18015KT 15/02 A3023 RMK A01 T01450015  RH  041%=      5-min Rain = 0
KLE1 132109Z 18016KT 15/01 A3023 RMK A01 T01470014  RH  041%=      5-min Rain = 0
KLE1 132110Z 17014KT 15/01 A3023 RMK A01 T01450013  RH  041%=      5-min Rain = 0
KLE1 132111Z 17012KT 15/01 A3023 RMK A01 T01450014  RH  041%=      5-min Rain = 0
KLE1 132112Z 17010KT 15/01 A3023 RMK A01 T01450014  RH  041%=      5-min Rain = 0
KLE1 132113Z 18009G15KT 15/02 A3023 RMK A01 T01460015  RH  041%=      5-min Rain = 0
KLE1 132114Z 17013KT 15/01 A3023 RMK A01 T01470014  RH  040%=      5-min Rain = 0
KLE1 132115Z 16011KT 15/01 A3023 RMK A01 T01480014  RH  040%=      5-min Rain = 0
KLE1 132116Z 17009KT 15/01 A3023 RMK A01 T01470014  RH  040%=      5-min Rain = 0
KLE1 132117Z 17008KT 15/02 A3023 RMK A01 T01480015  RH  040%=      5-min Rain = 0
KLE1 132118Z 17011KT 15/02 A3023 RMK A01 T01490016  RH  040%=      5-min Rain = 0
KLE1 132119Z 18012KT 15/02 A3023 RMK A01 T01500016  RH  040%=      5-min Rain = 0
KLE1 132120Z 17011KT 15/02 A3023 RMK A01 T01530017  RH  040%=      5-min Rain = 0
KLE1 132121Z 18008KT 15/02 A3023 RMK A01 T01520016  RH  040%=      5-min Rain = 0
KLE1 132122Z 17014KT 15/02 A3023 RMK A01 T01510016  RH  040%=      5-min Rain = 0
KLE1 132123Z 15014KT 15/02 A3023 RMK A01 T01510015  RH  040%=      5-min Rain = 0
KLE1 132124Z 16013KT 15/02 A3023 RMK A01 T01510015  RH  040%=      5-min Rain = 0
KLE1 132125Z 17014KT 15/02 A3023 RMK A01 T01500015  RH  040%=      5-min Rain = 0
KLE1 132126Z 17014KT 15/02 A3023 RMK A01 T01510016  RH  040%=      5-min Rain = 0
KLE1 132127Z 18009KT 15/02 A3023 RMK A01 T01510016  RH  040%=      5-min Rain = 0
KLE1 132128Z 18014KT 15/02 A3023 RMK A01 T01540018  RH  040%=      5-min Rain = 0
KLE1 132129Z 19012KT 15/02 A3023 RMK A01 T01530016  RH  039%=      5-min Rain = 0
KLE1 132130Z 17012KT 15/02 A3023 RMK A01 T01530017  RH  040%=      5-min Rain = 0
KLE1 132131Z 17015KT 16/02 A3023 RMK A01 T01550018  RH  039%=      5-min Rain = 0
KLE1 132132Z 17014KT 16/02 A3023 RMK A01 T01550017  RH  039%=      5-min Rain = 0
KLE1 132133Z 17013KT 16/02 A3023 RMK A01 T01550017  RH  039%=      5-min Rain = 0
KLE1 132134Z 17012KT 15/02 A3023 RMK A01 T01530016  RH  040%=      5-min Rain = 0
KLE1 132135Z 18014KT 15/02 A3022 RMK A01 T01520017  RH  040%=      5-min Rain = 0
KLE1 132136Z 16014KT 15/02 A3023 RMK A01 T01540015  RH  039%=      5-min Rain = 0
KLE1 132137Z 15012KT 15/01 A3023 RMK A01 T01530012  RH  039%=      5-min Rain = 0
KLE1 132138Z 17014KT 15/01 A3023 RMK A01 T01510012  RH  039%=      5-min Rain = 0
KLE1 132139Z 18012KT 15/01 A3023 RMK A01 T01510013  RH  039%=      5-min Rain = 0
KLE1 132140Z 17011KT 15/01 A3023 RMK A01 T01510014  RH  039%=      5-min Rain = 0
KLE1 132141Z 16010KT 15/01 A3023 RMK A01 T01520014  RH  039%=      5-min Rain = 0
KLE1 132142Z 16013KT 15/01 A3023 RMK A01 T01520013  RH  039%=      5-min Rain = 0
KLE1 132143Z 16011KT 15/01 A3023 RMK A01 T01500012  RH  039%=      5-min Rain = 0
KLE1 132144Z 15011KT 15/01 A3023 RMK A01 T01500012  RH  039%=      5-min Rain = 0
KLE1 132145Z 15013KT 15/01 A3023 RMK A01 T01500012  RH  039%=      5-min Rain = 0
KLE1 132146Z 17014KT 15/01 A3023 RMK A01 T01500013  RH  039%=      5-min Rain = 0
KLE1 132147Z 18010KT 15/01 A3023 RMK A01 T01490012  RH  039%=      5-min Rain = 0
KLE1 132148Z 16010KT 15/01 A3023 RMK A01 T01490013  RH  040%=      5-min Rain = 0
KLE1 132149Z 17011KT 15/01 A3023 RMK A01 T01500013  RH  040%=      5-min Rain = 0
KLE1 132150Z 18009KT 15/01 A3023 RMK A01 T01500014  RH  039%=      5-min Rain = 0
KLE1 132151Z 18009KT 15/01 A3023 RMK A01 T01530014  RH  039%=      5-min Rain = 0
KLE1 132152Z 17008KT 15/01 A3023 RMK A01 T01530014  RH  039%=      5-min Rain = 0
KLE1 132153Z 17010KT 15/01 A3023 RMK A01 T01520013  RH  039%=      5-min Rain = 0
KLE1 132154Z 16010KT 15/02 A3023 RMK A01 T01530016  RH  039%=      5-min Rain = 0
KLE1 132155Z 17009KT 16/02 A3023 RMK A01 T01550017  RH  039%=      5-min Rain = 0
KLE1 132156Z 18010KT 16/02 A3023 RMK A01 T01560018  RH  039%=      5-min Rain = 0
KLE1 132157Z 16012KT 15/02 A3022 RMK A01 T01540016  RH  039%=      5-min Rain = 0
KLE1 132158Z 15010KT 15/02 A3022 RMK A01 T01520015  RH  039%=      5-min Rain = 0
KLE1 132159Z 17014KT 15/02 A3022 RMK A01 T01510015  RH  040%=      5-min Rain = 0
KLE1 132200Z 19012KT 15/02 A3022 RMK A01 T01510016  RH  040%=      5-min Rain = 0
KLE1 132201Z 18011KT 15/02 A3022 RMK A01 T01510016  RH  040%=      5-min Rain = 0
KLE1 132202Z 18012KT 15/02 A3022 RMK A01 T01520017  RH  040%=      5-min Rain = 0
KLE1 132203Z 17011KT 15/02 A3022 RMK A01 T01530016  RH  039%=      5-min Rain = 0
KLE1 132204Z 17008KT 15/02 A3022 RMK A01 T01530016  RH  039%=      5-min Rain = 0
KLE1 132205Z 15011KT 16/02 A3022 RMK A01 T01560018  RH  039%=      5-min Rain = 0
KLE1 132206Z 16013KT 16/02 A3022 RMK A01 T01580017  RH  039%=      5-min Rain = 0
KLE1 132207Z 16010KT 16/02 A3022 RMK A01 T01560016  RH  039%=      5-min Rain = 0
KLE1 132208Z 18012KT 16/02 A3022 RMK A01 T01550017  RH  039%=      5-min Rain = 0
KLE1 132209Z 18012KT 16/02 A3022 RMK A01 T01550017  RH  039%=      5-min Rain = 0
KLE1 132210Z 18012KT 15/02 A3022 RMK A01 T01540017  RH  040%=      5-min Rain = 0
KLE1 132211Z 16010KT 15/02 A3022 RMK A01 T01530018  RH  040%=      5-min Rain = 0
KLE1 132212Z 16010KT 15/02 A3022 RMK A01 T01520017  RH  040%=      5-min Rain = 0
KLE1 132213Z 17012G19KT 15/02 A3022 RMK A01 T01530017  RH  040%=      5-min Rain = 0
KLE1 132214Z 15013KT 15/02 A3022 RMK A01 T01540017  RH  039%=      5-min Rain = 0
KLE1 132215Z 15010KT 15/02 A3022 RMK A01 T01540015  RH  039%=      5-min Rain = 0
KLE1 132216Z 14009KT 15/02 A3022 RMK A01 T01530015  RH  039%=      5-min Rain = 0
KLE1 132217Z 14010KT 15/02 A3022 RMK A01 T01530015  RH  039%=      5-min Rain = 0
KLE1 132218Z 15011KT 16/02 A3022 RMK A01 T01550015  RH  039%=      5-min Rain = 0
KLE1 132219Z 16011KT 16/02 A3022 RMK A01 T01560016  RH  039%=      5-min Rain = 0
KLE1 132220Z 16010KT 16/02 A3022 RMK A01 T01560015  RH  038%=      5-min Rain = 0
KLE1 132221Z 15009KT 16/02 A3022 RMK A01 T01560015  RH  038%=      5-min Rain = 0
KLE1 132222Z 15007KT 16/02 A3022 RMK A01 T01560015  RH  038%=      5-min Rain = 0
KLE1 132223Z 13009KT 16/02 A3022 RMK A01 T01560015  RH  038%=      5-min Rain = 0
KLE1 132224Z 14012KT 16/01 A3022 RMK A01 T01560014  RH  038%=      5-min Rain = 0
KLE1 132225Z 14012KT 16/01 A3022 RMK A01 T01570014  RH  038%=      5-min Rain = 0
KLE1 132226Z 14008KT 16/01 A3022 RMK A01 T01560013  RH  038%=      5-min Rain = 0
KLE1 132227Z 15009KT 15/01 A3022 RMK A01 T01540013  RH  038%=      5-min Rain = 0
KLE1 132228Z 15008KT 16/01 A3022 RMK A01 T01550014  RH  039%=      5-min Rain = 0
KLE1 132229Z 14008KT 16/02 A3022 RMK A01 T01560015  RH  038%=      5-min Rain = 0
KLE1 132230Z 13010KT 16/02 A3022 RMK A01 T01570015  RH  038%=      5-min Rain = 0
KLE1 132231Z 13010KT 16/01 A3021 RMK A01 T01560014  RH  038%=      5-min Rain = 0
KLE1 132232Z 14009KT 16/01 A3022 RMK A01 T01560014  RH  038%=      5-min Rain = 0
KLE1 132233Z 14010KT 16/02 A3022 RMK A01 T01550015  RH  039%=      5-min Rain = 0
KLE1 132234Z 15008KT 16/02 A3022 RMK A01 T01550015  RH  039%=      5-min Rain = 0
KLE1 132235Z 14006KT 16/02 A3022 RMK A01 T01550015  RH  039%=      5-min Rain = 0
KLE1 132236Z 12010KT 16/02 A3022 RMK A01 T01560015  RH  038%=      5-min Rain = 0
KLE1 132237Z 13010KT 16/01 A3022 RMK A01 T01570014  RH  038%=      5-min Rain = 0
KLE1 132238Z 13010KT 16/01 A3022 RMK A01 T01570014  RH  038%=      5-min Rain = 0
KLE1 132239Z 12008KT 16/01 A3021 RMK A01 T01560014  RH  038%=      5-min Rain = 0
KLE1 132240Z 12006KT 16/01 A3021 RMK A01 T01550014  RH  039%=      5-min Rain = 0
KLE1 132241Z 13005KT 15/01 A3021 RMK A01 T01540014  RH  039%=      5-min Rain = 0
KLE1 132242Z 15007KT 16/02 A3021 RMK A01 T01560016  RH  039%=      5-min Rain = 0
KLE1 132243Z 15009KT 16/02 A3021 RMK A01 T01580018  RH  039%=      5-min Rain = 0
KLE1 132244Z 15010KT 16/02 A3021 RMK A01 T01590018  RH  039%=      5-min Rain = 0
KLE1 132245Z 16009KT 16/02 A3021 RMK A01 T01600019  RH  039%=      5-min Rain = 0
KLE1 132246Z 16012KT 16/02 A3021 RMK A01 T01610021  RH  039%=      5-min Rain = 0
KLE1 132247Z 17009KT 16/02 A3021 RMK A01 T01620021  RH  039%=      5-min Rain = 0
KLE1 132248Z 17010KT 16/02 A3021 RMK A01 T01640022  RH  038%=      5-min Rain = 0
KLE1 132249Z 16012KT 17/02 A3021 RMK A01 T01660022  RH  038%=      5-min Rain = 0
KLE1 132250Z 16012KT 17/02 A3021 RMK A01 T01660021  RH  038%=      5-min Rain = 0
KLE1 132251Z 16012KT 17/02 A3021 RMK A01 T01650021  RH  038%=      5-min Rain = 0
KLE1 132252Z 16014KT 17/02 A3021 RMK A01 T01650021  RH  038%=      5-min Rain = 0
KLE1 132253Z 16014KT 16/02 A3021 RMK A01 T01640021  RH  038%=      5-min Rain = 0
KLE1 132254Z 17014KT 16/02 A3021 RMK A01 T01630021  RH  038%=      5-min Rain = 0
KLE1 132255Z 17014KT 16/02 A3021 RMK A01 T01630021  RH  038%=      5-min Rain = 0
KLE1 132256Z 18011KT 16/02 A3021 RMK A01 T01630021  RH  038%=      5-min Rain = 0
KLE1 132257Z 18012KT 16/02 A3021 RMK A01 T01630021  RH  038%=      5-min Rain = 0
KLE1 132258Z 18011KT 16/02 A3021 RMK A01 T01640021  RH  038%=      5-min Rain = 0
KLE1 132259Z 17013KT 17/02 A3021 RMK A01 T01650021  RH  038%=      5-min Rain = 0
KLE1 132300Z 17012KT 16/02 A3021 RMK A01 T01640020  RH  038%=      5-min Rain = 0
KLE1 132301Z 17013KT 16/02 A3021 RMK A01 T01630020  RH  038%=      5-min Rain = 0
KLE1 132302Z 17014KT 16/02 A3021 RMK A01 T01630020  RH  038%=      5-min Rain = 0
KLE1 132303Z 18015KT 16/02 A3021 RMK A01 T01640020  RH  038%=      5-min Rain = 0
KLE1 132304Z 18015KT 16/02 A3021 RMK A01 T01630019  RH  038%=      5-min Rain = 0
KLE1 132305Z 17012KT 16/02 A3022 RMK A01 T01620019  RH  038%=      5-min Rain = 0
KLE1 132306Z 17014KT 16/02 A3021 RMK A01 T01610019  RH  038%=      5-min Rain = 0
KLE1 132307Z 18013KT 16/02 A3021 RMK A01 T01610019  RH  038%=      5-min Rain = 0
KLE1 132308Z 18013KT 16/02 A3022 RMK A01 T01600019  RH  039%=      5-min Rain = 0
KLE1 132309Z 18013KT 16/02 A3021 RMK A01 T01590019  RH  039%=      5-min Rain = 0
KLE1 132310Z 18012KT 16/02 A3021 RMK A01 T01580019  RH  039%=      5-min Rain = 0
KLE1 132311Z 18011KT 16/02 A3021 RMK A01 T01570018  RH  039%=      5-min Rain = 0
KLE1 132312Z 17013KT 16/02 A3021 RMK A01 T01570018  RH  039%=      5-min Rain = 0
KLE1 132313Z 18012KT 16/02 A3021 RMK A01 T01570018  RH  039%=      5-min Rain = 0
KLE1 132314Z 17010KT 16/02 A3021 RMK A01 T01580018  RH  039%=      5-min Rain = 0
KLE1 132315Z 18011KT 16/02 A3021 RMK A01 T01580019  RH  039%=      5-min Rain = 0
KLE1 132316Z 18013KT 16/02 A3021 RMK A01 T01580018  RH  039%=      5-min Rain = 0
KLE1 132317Z 18011KT 16/02 A3021 RMK A01 T01580018  RH  039%=      5-min Rain = 0
KLE1 132318Z 17010KT 16/02 A3021 RMK A01 T01580018  RH  039%=      5-min Rain = 0
KLE1 132319Z 17013KT 16/02 A3021 RMK A01 T01580017  RH  039%=      5-min Rain = 0
KLE1 132320Z 17012KT 16/02 A3021 RMK A01 T01570017  RH  039%=      5-min Rain = 0
KLE1 132321Z 17010KT 16/02 A3021 RMK A01 T01570017  RH  039%=      5-min Rain = 0
KLE1 132322Z 17010KT 16/02 A3021 RMK A01 T01570017  RH  039%=      5-min Rain = 0
KLE1 132323Z 17013KT 16/02 A3021 RMK A01 T01560017  RH  039%=      5-min Rain = 0
KLE1 132324Z 17011KT 16/02 A3021 RMK A01 T01560017  RH  039%=      5-min Rain = 0
KLE1 132325Z 17011KT 16/02 A3021 RMK A01 T01550016  RH  039%=      5-min Rain = 0
KLE1 132326Z 17012KT 16/02 A3021 RMK A01 T01550017  RH  039%=      5-min Rain = 0
KLE1 132327Z 18011KT 16/02 A3021 RMK A01 T01550017  RH  039%=      5-min Rain = 0
KLE1 132328Z 17013KT 16/02 A3021 RMK A01 T01550017  RH  039%=      5-min Rain = 0
KLE1 132329Z 17012KT 16/02 A3021 RMK A01 T01550017  RH  039%=      5-min Rain = 0
KLE1 132330Z 17010KT 16/02 A3021 RMK A01 T01550017  RH  039%=      5-min Rain = 0
KLE1 132331Z 17011KT 16/02 A3021 RMK A01 T01550016  RH  039%=      5-min Rain = 0
KLE1 132332Z 17012KT 15/02 A3021 RMK A01 T01540016  RH  039%=      5-min Rain = 0
KLE1 132333Z 18012KT 15/02 A3021 RMK A01 T01540016  RH  039%=      5-min Rain = 0
KLE1 132334Z 18012KT 15/02 A3021 RMK A01 T01540016  RH  039%=      5-min Rain = 0
KLE1 132335Z 17010KT 15/02 A3021 RMK A01 T01540016  RH  039%=      5-min Rain = 0
KLE1 132336Z 17009KT 15/02 A3021 RMK A01 T01530016  RH  039%=      5-min Rain = 0
KLE1 132337Z 17012KT 15/02 A3021 RMK A01 T01530016  RH  039%=      5-min Rain = 0
KLE1 132338Z 17011KT 15/02 A3021 RMK A01 T01530016  RH  040%=      5-min Rain = 0
KLE1 132339Z 18010KT 15/02 A3021 RMK A01 T01520016  RH  040%=      5-min Rain = 0
KLE1 132340Z 18012KT 15/02 A3021 RMK A01 T01520016  RH  040%=      5-min Rain = 0
KLE1 132341Z 17012KT 15/02 A3021 RMK A01 T01510016  RH  040%=      5-min Rain = 0
KLE1 132342Z 17010KT 15/02 A3021 RMK A01 T01510016  RH  040%=      5-min Rain = 0
KLE1 132343Z 17010KT 15/02 A3021 RMK A01 T01510016  RH  040%=      5-min Rain = 0
KLE1 132344Z 17009KT 15/02 A3021 RMK A01 T01500016  RH  040%=      5-min Rain = 0
KLE1 132345Z 16008KT 15/02 A3021 RMK A01 T01500015  RH  040%=      5-min Rain = 0
KLE1 132346Z 17008KT 15/02 A3021 RMK A01 T01500015  RH  040%=      5-min Rain = 0
KLE1 132347Z 17008KT 15/01 A3021 RMK A01 T01490014  RH  040%=      5-min Rain = 0
KLE1 132348Z 17008KT 15/01 A3021 RMK A01 T01480014  RH  040%=      5-min Rain = 0
KLE1 132349Z 17009KT 15/02 A3021 RMK A01 T01480015  RH  040%=      5-min Rain = 0
KLE1 132350Z 17009KT 15/02 A3021 RMK A01 T01470015  RH  041%=      5-min Rain = 0
KLE1 132351Z 17008KT 15/01 A3021 RMK A01 T01470014  RH  041%=      5-min Rain = 0
KLE1 132352Z 17009KT 15/01 A3021 RMK A01 T01460014  RH  041%=      5-min Rain = 0
KLE1 132353Z 17008KT 15/01 A3022 RMK A01 T01460014  RH  041%=      5-min Rain = 0
KLE1 132354Z 16010KT 15/01 A3021 RMK A01 T01450014  RH  041%=      5-min Rain = 0
KLE1 132355Z 17011KT 15/01 A3021 RMK A01 T01450014  RH  041%=      5-min Rain = 0
KLE1 132356Z 16010KT 15/01 A3021 RMK A01 T01450014  RH  041%=      5-min Rain = 0
KLE1 132357Z 16011KT 14/01 A3022 RMK A01 T01440014  RH  041%=      5-min Rain = 0
KLE1 132358Z 16011KT 14/01 A3022 RMK A01 T01440014  RH  041%=      5-min Rain = 0
KLE1 132359Z 16010KT 14/01 A3021 RMK A01 T01430013  RH  041%=      5-min Rain = 0
KLE1 140000Z 16011KT 14/01 A3021 RMK A01 T01430014  RH  041%=      5-min Rain = 0
KLE1 140001Z 16011KT 14/01 A3021 RMK A01 T01420013  RH  041%=      5-min Rain = 0
KLE1 140002Z 16011KT 14/01 A3021 RMK A01 T01420013  RH  041%=      5-min Rain = 0
KLE1 140003Z 16011KT 14/01 A3021 RMK A01 T01410013  RH  042%=      5-min Rain = 0
KLE1 140004Z 16010KT 14/01 A3021 RMK A01 T01410012  RH  042%=      5-min Rain = 0
KLE1 140005Z 16010KT 14/01 A3021 RMK A01 T01400011  RH  042%=      5-min Rain = 0
KLE1 140006Z 16010KT 14/01 A3021 RMK A01 T01390011  RH  042%=      5-min Rain = 0
KLE1 140007Z 16009KT 14/01 A3021 RMK A01 T01380011  RH  042%=      5-min Rain = 0
KLE1 140008Z 16011KT 14/01 A3021 RMK A01 T01380011  RH  042%=      5-min Rain = 0
KLE1 140009Z 16010KT 14/01 A3021 RMK A01 T01380011  RH  042%=      5-min Rain = 0
KLE1 140010Z 16010KT 14/01 A3021 RMK A01 T01380011  RH  042%=      5-min Rain = 0
KLE1 140011Z 16009KT 14/01 A3021 RMK A01 T01370010  RH  042%=      5-min Rain = 0
KLE1 140012Z 16010KT 14/01 A3021 RMK A01 T01360010  RH  042%=      5-min Rain = 0
KLE1 140013Z 16010KT 13/01 A3021 RMK A01 T01340009  RH  042%=      5-min Rain = 0
KLE1 140014Z 16010KT 13/01 A3021 RMK A01 T01330009  RH  043%=      5-min Rain = 0
KLE1 140015Z 16010KT 13/01 A3021 RMK A01 T01330009  RH  043%=      5-min Rain = 0
KLE1 140016Z 16010KT 13/01 A3021 RMK A01 T01320009  RH  043%=      5-min Rain = 0
KLE1 140017Z 16010KT 13/01 A3021 RMK A01 T01320009  RH  043%=      5-min Rain = 0
KLE1 140018Z 16010KT 13/01 A3021 RMK A01 T01310009  RH  043%=      5-min Rain = 0
KLE1 140019Z 16010KT 13/01 A3021 RMK A01 T01300008  RH  043%=      5-min Rain = 0
KLE1 140020Z 16009KT 13/01 A3021 RMK A01 T01300008  RH  043%=      5-min Rain = 0
KLE1 140021Z 16009KT 13/01 A3021 RMK A01 T01300008  RH  043%=      5-min Rain = 0
KLE1 140022Z 16009KT 13/01 A3021 RMK A01 T01280007  RH  044%=      5-min Rain = 0
KLE1 140023Z 15009KT 13/01 A3021 RMK A01 T01280007  RH  044%=      5-min Rain = 0
KLE1 140024Z 16009KT 13/01 A3021 RMK A01 T01270007  RH  044%=      5-min Rain = 0
KLE1 140025Z 16009KT 13/01 A3021 RMK A01 T01260006  RH  044%=      5-min Rain = 0
KLE1 140026Z 16009KT 13/01 A3021 RMK A01 T01250006  RH  044%=      5-min Rain = 0
KLE1 140027Z 16009KT 12/01 A3021 RMK A01 T01240005  RH  044%=      5-min Rain = 0
KLE1 140028Z 16009KT 12/01 A3021 RMK A01 T01230005  RH  044%=      5-min Rain = 0
KLE1 140029Z 16009KT 12/00 A3021 RMK A01 T01230004  RH  044%=      5-min Rain = 0
KLE1 140030Z 16009KT 12/00 A3021 RMK A01 T01220004  RH  044%=      5-min Rain = 0
KLE1 140031Z 16009KT 12/00 A3021 RMK A01 T01210003  RH  044%=      5-min Rain = 0
KLE1 140032Z 16009KT 12/00 A3021 RMK A01 T01200003  RH  045%=      5-min Rain = 0
KLE1 140033Z 16009KT 12/00 A3021 RMK A01 T01190003  RH  045%=      5-min Rain = 0
KLE1 140034Z 16009KT 12/00 A3021 RMK A01 T01180002  RH  045%=      5-min Rain = 0
KLE1 140035Z 16009KT 12/00 A3021 RMK A01 T01170003  RH  045%=      5-min Rain = 0
KLE1 140036Z 16009KT 12/00 A3021 RMK A01 T01170002  RH  045%=      5-min Rain = 0
KLE1 140037Z 16009KT 12/00 A3021 RMK A01 T01160002  RH  045%=      5-min Rain = 0
KLE1 140038Z 16009KT 12/00 A3021 RMK A01 T01150002  RH  046%=      5-min Rain = 0
KLE1 140039Z 16009KT 11/00 A3022 RMK A01 T01140002  RH  046%=      5-min Rain = 0
KLE1 140040Z 16009KT 11/00 A3022 RMK A01 T01140002  RH  046%=      5-min Rain = 0
KLE1 140041Z 16009KT 11/00 A3022 RMK A01 T01140002  RH  046%=      5-min Rain = 0
KLE1 140042Z 16008KT 11/00 A3022 RMK A01 T01140002  RH  046%=      5-min Rain = 0
KLE1 140043Z 16008KT 11/00 A3022 RMK A01 T01140002  RH  046%=      5-min Rain = 0
KLE1 140044Z 16009KT 11/00 A3022 RMK A01 T01130001  RH  046%=      5-min Rain = 0
KLE1 140045Z 16008KT 11/00 A3022 RMK A01 T01130001  RH  046%=      5-min Rain = 0
KLE1 140046Z 16008KT 11/00 A3022 RMK A01 T01130002  RH  046%=      5-min Rain = 0
KLE1 140047Z 16008KT 11/00 A3022 RMK A01 T01120001  RH  046%=      5-min Rain = 0
KLE1 140048Z 16008KT 11/00 A3022 RMK A01 T01120001  RH  046%=      5-min Rain = 0
KLE1 140049Z 16008KT 11/00 A3022 RMK A01 T01120002  RH  046%=      5-min Rain = 0
KLE1 140050Z 16008KT 11/00 A3022 RMK A01 T01110001  RH  046%=      5-min Rain = 0
KLE1 140051Z 15007KT 11/00 A3022 RMK A01 T01110001  RH  047%=      5-min Rain = 0
KLE1 140052Z 15007KT 11/00 A3022 RMK A01 T011000-0  RH  046%=      5-min Rain = 0
KLE1 140053Z 15006KT 11/M00 A3022 RMK A01 T01101001  RH  046%=      5-min Rain = 0
KLE1 140054Z 15006KT 11/00 A3022 RMK A01 T011000-0  RH  047%=      5-min Rain = 0
KLE1 140055Z 15006KT 11/M00 A3022 RMK A01 T01091001  RH  047%=      5-min Rain = 0
KLE1 140056Z 15006KT 11/M00 A3022 RMK A01 T01091001  RH  047%=      5-min Rain = 0
KLE1 140057Z 15006KT 11/00 A3023 RMK A01 T010900-0  RH  047%=      5-min Rain = 0
KLE1 140058Z 15006KT 11/00 A3023 RMK A01 T01090001  RH  047%=      5-min Rain = 0
KLE1 140059Z 15006KT 11/00 A3023 RMK A01 T01100001  RH  047%=      5-min Rain = 0
KLE1 140100Z 15006KT 11/00 A3022 RMK A01 T01110002  RH  047%=      5-min Rain = 0
KLE1 140101Z 15006KT 11/00 A3022 RMK A01 T01110002  RH  047%=      5-min Rain = 0
KLE1 140102Z 15006KT 11/00 A3022 RMK A01 T01120002  RH  047%=      5-min Rain = 0
KLE1 140103Z 15005KT 11/00 A3022 RMK A01 T011100-0  RH  046%=      5-min Rain = 0
KLE1 140104Z 14005KT 11/M00 A3022 RMK A01 T01091003  RH  046%=      5-min Rain = 0
KLE1 140105Z 14005KT 11/M00 A3022 RMK A01 T01081002  RH  046%=      5-min Rain = 0
KLE1 140106Z 14005KT 11/00 A3022 RMK A01 T010800-0  RH  047%=      5-min Rain = 0
KLE1 140107Z 14005KT 11/00 A3022 RMK A01 T01070000  RH  047%=      5-min Rain = 0
KLE1 140108Z 14005KT 11/00 A3022 RMK A01 T01070001  RH  048%=      5-min Rain = 0
KLE1 140109Z 14005KT 11/00 A3022 RMK A01 T01070000  RH  048%=      5-min Rain = 0
KLE1 140110Z 14005KT 11/00 A3022 RMK A01 T01060000  RH  048%=      5-min Rain = 0
KLE1 140111Z 14005KT 11/00 A3022 RMK A01 T01060000  RH  048%=      5-min Rain = 0
KLE1 140112Z 14005KT 11/00 A3023 RMK A01 T01060000  RH  048%=      5-min Rain = 0
KLE1 140113Z 14005KT 11/00 A3023 RMK A01 T01060000  RH  048%=      5-min Rain = 0
KLE1 140114Z 14005KT 11/00 A3023 RMK A01 T01060001  RH  048%=      5-min Rain = 0
KLE1 140115Z 14005KT 11/00 A3023 RMK A01 T01060001  RH  048%=      5-min Rain = 0
KLE1 140116Z 14005KT 11/00 A3023 RMK A01 T01060001  RH  048%=      5-min Rain = 0
KLE1 140117Z 14005KT 11/00 A3023 RMK A01 T01060001  RH  048%=      5-min Rain = 0
KLE1 140118Z 14005KT 11/00 A3023 RMK A01 T01060001  RH  048%=      5-min Rain = 0
KLE1 140119Z 14005KT 11/00 A3023 RMK A01 T01060002  RH  048%=      5-min Rain = 0
KLE1 140120Z 14005KT 11/00 A3023 RMK A01 T01060002  RH  049%=      5-min Rain = 0
KLE1 140121Z 14006KT 11/00 A3023 RMK A01 T01060002  RH  049%=      5-min Rain = 0
KLE1 140122Z 14006KT 11/00 A3023 RMK A01 T01070003  RH  049%=      5-min Rain = 0
KLE1 140123Z 14006KT 11/00 A3023 RMK A01 T01070002  RH  048%=      5-min Rain = 0
KLE1 140124Z 14006KT 11/00 A3023 RMK A01 T01070002  RH  048%=      5-min Rain = 0
KLE1 140125Z 14005KT 11/00 A3023 RMK A01 T01070002  RH  048%=      5-min Rain = 0
KLE1 140126Z 14005KT 11/00 A3023 RMK A01 T01070002  RH  048%=      5-min Rain = 0
KLE1 140127Z 13005KT 11/00 A3023 RMK A01 T01070002  RH  048%=      5-min Rain = 0
KLE1 140128Z 13005KT 11/00 A3023 RMK A01 T01070002  RH  048%=      5-min Rain = 0
KLE1 140129Z 13005KT 11/00 A3023 RMK A01 T01070002  RH  048%=      5-min Rain = 0
KLE1 140130Z 12004KT 11/00 A3023 RMK A01 T01070002  RH  048%=      5-min Rain = 0
KLE1 140131Z 12004KT 11/00 A3023 RMK A01 T01070002  RH  048%=      5-min Rain = 0
KLE1 140132Z 12004KT 11/00 A3023 RMK A01 T01070002  RH  048%=      5-min Rain = 0
KLE1 140133Z 12004KT 11/00 A3023 RMK A01 T01070001  RH  048%=      5-min Rain = 0
KLE1 140134Z 11004KT 11/00 A3023 RMK A01 T01070002  RH  048%=      5-min Rain = 0
KLE1 140135Z 12003KT 11/00 A3023 RMK A01 T01070001  RH  048%=      5-min Rain = 0
KLE1 140136Z 11003KT 11/00 A3023 RMK A01 T01060001  RH  048%=      5-min Rain = 0
KLE1 140137Z 12004KT 11/00 A3023 RMK A01 T01060001  RH  048%=      5-min Rain = 0
KLE1 140138Z 12004KT 10/00 A3023 RMK A01 T010400-0  RH  048%=      5-min Rain = 0
KLE1 140139Z 11004KT 10/00 A3023 RMK A01 T01040000  RH  049%=      5-min Rain = 0
KLE1 140140Z 11004KT 10/00 A3023 RMK A01 T010300-0  RH  049%=      5-min Rain = 0
KLE1 140141Z 12005KT 10/M00 A3023 RMK A01 T01021001  RH  049%=      5-min Rain = 0
KLE1 140142Z 12004KT 10/M00 A3023 RMK A01 T01021001  RH  049%=      5-min Rain = 0
KLE1 140143Z 12004KT 10/M00 A3023 RMK A01 T01021001  RH  049%=      5-min Rain = 0
KLE1 140144Z 12004KT 10/00 A3023 RMK A01 T01020001  RH  049%=      5-min Rain = 0
KLE1 140145Z 13004KT 10/00 A3023 RMK A01 T01030001  RH  049%=      5-min Rain = 0
KLE1 140146Z 12005KT 10/00 A3023 RMK A01 T01040001  RH  049%=      5-min Rain = 0
KLE1 140147Z 12005KT 10/00 A3023 RMK A01 T01040001  RH  049%=      5-min Rain = 0
KLE1 140148Z 13005KT 11/00 A3023 RMK A01 T01050002  RH  049%=      5-min Rain = 0
KLE1 140149Z 12005KT 11/00 A3023 RMK A01 T01050002  RH  049%=      5-min Rain = 0
KLE1 140150Z 12005KT 11/00 A3023 RMK A01 T01050002  RH  049%=      5-min Rain = 0
KLE1 140151Z 12004KT 11/00 A3023 RMK A01 T01060002  RH  049%=      5-min Rain = 0
KLE1 140152Z 12004KT 11/00 A3023 RMK A01 T01060002  RH  049%=      5-min Rain = 0
KLE1 140153Z 12004KT 11/00 A3023 RMK A01 T01060002  RH  049%=      5-min Rain = 0
KLE1 140154Z 11004KT 11/00 A3023 RMK A01 T01060002  RH  048%=      5-min Rain = 0
KLE1 140155Z 11004KT 11/00 A3023 RMK A01 T01060002  RH  049%=      5-min Rain = 0
KLE1 140156Z 12005KT 11/00 A3023 RMK A01 T01060002  RH  049%=      5-min Rain = 0
KLE1 140157Z 12005KT 11/00 A3023 RMK A01 T01060002  RH  049%=      5-min Rain = 0
KLE1 140158Z 12004KT 11/00 A3023 RMK A01 T01060002  RH  049%=      5-min Rain = 0
KLE1 140159Z 12005KT 11/00 A3023 RMK A01 T01060003  RH  049%=      5-min Rain = 0
KLE1 140200Z 12004KT 11/00 A3023 RMK A01 T01060004  RH  049%=      5-min Rain = 0
KLE1 140201Z 12004KT 11/00 A3023 RMK A01 T01080004  RH  049%=      5-min Rain = 0
KLE1 140202Z 12004KT 11/00 A3023 RMK A01 T01080004  RH  048%=      5-min Rain = 0
KLE1 140203Z 12004KT 11/00 A3023 RMK A01 T01080004  RH  048%=      5-min Rain = 0
KLE1 140204Z 12004KT 11/00 A3023 RMK A01 T01080004  RH  049%=      5-min Rain = 0
KLE1 140205Z 12004KT 11/00 A3023 RMK A01 T01080004  RH  049%=      5-min Rain = 0
KLE1 140206Z 12004KT 11/00 A3023 RMK A01 T01080004  RH  049%=      5-min Rain = 0
KLE1 140207Z 12004KT 11/00 A3023 RMK A01 T01080004  RH  049%=      5-min Rain = 0
KLE1 140208Z 12004KT 11/00 A3023 RMK A01 T01080004  RH  049%=      5-min Rain = 0
KLE1 140209Z 11004KT 11/00 A3023 RMK A01 T01080004  RH  048%=      5-min Rain = 0
KLE1 140210Z 11004KT 11/00 A3023 RMK A01 T01080004  RH  049%=      5-min Rain = 0
KLE1 140211Z 12004KT 11/00 A3023 RMK A01 T01070004  RH  049%=      5-min Rain = 0
KLE1 140212Z 12004KT 11/00 A3023 RMK A01 T01070003  RH  049%=      5-min Rain = 0
KLE1 140213Z 12004KT 11/00 A3023 RMK A01 T01060003  RH  049%=      5-min Rain = 0
KLE1 140214Z 12005KT 11/00 A3023 RMK A01 T01060003  RH  049%=      5-min Rain = 0
KLE1 140215Z 12005KT 11/00 A3023 RMK A01 T01050002  RH  049%=      5-min Rain = 0
KLE1 140216Z 12005KT 11/00 A3023 RMK A01 T01050002  RH  049%=      5-min Rain = 0
KLE1 140217Z 11005KT 10/00 A3023 RMK A01 T01030002  RH  049%=      5-min Rain = 0
KLE1 140218Z 11005KT 10/00 A3023 RMK A01 T01030002  RH  050%=      5-min Rain = 0
KLE1 140219Z 11006KT 10/00 A3024 RMK A01 T01020002  RH  050%=      5-min Rain = 0
KLE1 140220Z 10006KT 10/00 A3024 RMK A01 T01000000  RH  050%=      5-min Rain = 0
KLE1 140221Z 11005KT 10/M00 A3024 RMK A01 T00981001  RH  050%=      5-min Rain = 0
KLE1 140222Z 11005KT 10/M00 A3024 RMK A01 T00961001  RH  051%=      5-min Rain = 0
KLE1 140223Z 11005KT 10/M00 A3024 RMK A01 T00951001  RH  051%=      5-min Rain = 0
KLE1 140224Z 11005KT 10/00 A3024 RMK A01 T00950000  RH  051%=      5-min Rain = 0
KLE1 140225Z 11005KT 10/00 A3024 RMK A01 T00950000  RH  051%=      5-min Rain = 0
KLE1 140226Z 10006KT 09/M00 A3024 RMK A01 T00941001  RH  051%=      5-min Rain = 0
KLE1 140227Z 10006KT 09/M00 A3024 RMK A01 T00931002  RH  052%=      5-min Rain = 0
KLE1 140228Z 11006KT 09/M00 A3024 RMK A01 T00911003  RH  052%=      5-min Rain = 0
KLE1 140229Z 10006KT 09/M00 A3024 RMK A01 T00901003  RH  052%=      5-min Rain = 0
KLE1 140230Z 10006KT 09/M00 A3024 RMK A01 T00891003  RH  053%=      5-min Rain = 0
KLE1 140231Z 10006KT 09/M00 A3024 RMK A01 T00891002  RH  053%=      5-min Rain = 0
KLE1 140232Z 10006KT 09/M00 A3024 RMK A01 T00881002  RH  053%=      5-min Rain = 0
KLE1 140233Z 10006KT 09/M00 A3024 RMK A01 T00871002  RH  053%=      5-min Rain = 0
KLE1 140234Z 10006KT 09/M00 A3024 RMK A01 T00861003  RH  054%=      5-min Rain = 0
KLE1 140235Z 09006KT 09/M00 A3024 RMK A01 T00861002  RH  054%=      5-min Rain = 0
KLE1 140236Z 10006KT 09/M00 A3024 RMK A01 T00861002  RH  054%=      5-min Rain = 0
KLE1 140237Z 09006KT 09/M00 A3024 RMK A01 T00861003  RH  054%=      5-min Rain = 0
KLE1 140238Z 09006KT 09/M00 A3024 RMK A01 T00861003  RH  054%=      5-min Rain = 0
KLE1 140239Z 09006KT 09/M00 A3024 RMK A01 T00851003  RH  054%=      5-min Rain = 0
KLE1 140240Z 09006KT 08/M00 A3024 RMK A01 T00841003  RH  054%=      5-min Rain = 0
KLE1 140241Z 09006KT 08/M00 A3024 RMK A01 T00831003  RH  054%=      5-min Rain = 0
KLE1 140242Z 09006KT 08/M00 A3024 RMK A01 T00831003  RH  055%=      5-min Rain = 0
KLE1 140243Z 09006KT 08/M00 A3024 RMK A01 T00831003  RH  055%=      5-min Rain = 0
KLE1 140244Z 09006KT 08/M00 A3024 RMK A01 T00831002  RH  055%=      5-min Rain = 0
KLE1 140245Z 09006KT 08/M00 A3024 RMK A01 T00831001  RH  055%=      5-min Rain = 0
KLE1 140246Z 09007KT 08/M00 A3024 RMK A01 T00841001  RH  055%=      5-min Rain = 0
KLE1 140247Z 09007KT 09/M00 A3024 RMK A01 T00851001  RH  055%=      5-min Rain = 0
KLE1 140248Z 10007KT 09/M00 A3024 RMK A01 T00851001  RH  055%=      5-min Rain = 0
KLE1 140249Z 09007KT 09/M00 A3024 RMK A01 T00851001  RH  055%=      5-min Rain = 0
KLE1 140250Z 10007KT 08/M00 A3024 RMK A01 T00841001  RH  055%=      5-min Rain = 0
KLE1 140251Z 10007KT 08/M00 A3024 RMK A01 T00831002  RH  055%=      5-min Rain = 0
KLE1 140252Z 10006KT 08/M00 A3024 RMK A01 T00821001  RH  056%=      5-min Rain = 0
KLE1 140253Z 10006KT 08/M00 A3024 RMK A01 T00821001  RH  056%=      5-min Rain = 0
KLE1 140254Z 10006KT 08/M00 A3024 RMK A01 T00821001  RH  056%=      5-min Rain = 0
KLE1 140255Z 10006KT 08/M00 A3024 RMK A01 T00821001  RH  056%=      5-min Rain = 0
KLE1 140256Z 10007KT 08/M00 A3024 RMK A01 T00811001  RH  056%=      5-min Rain = 0
KLE1 140257Z 10006KT 08/M00 A3024 RMK A01 T00811002  RH  056%=      5-min Rain = 0
KLE1 140258Z 10006KT 08/M00 A3024 RMK A01 T00801001  RH  056%=      5-min Rain = 0
KLE1 140259Z 10006KT 08/M00 A3024 RMK A01 T00801001  RH  056%=      5-min Rain = 0
KLE1 140300Z 10006KT 08/M00 A3024 RMK A01 T00801001  RH  057%=      5-min Rain = 0
KLE1 140301Z 10006KT 08/00 A3024 RMK A01 T008000-0  RH  057%=      5-min Rain = 0
KLE1 140302Z 10006KT 08/M00 A3024 RMK A01 T00801001  RH  057%=      5-min Rain = 0
KLE1 140303Z 09006KT 08/00 A3024 RMK A01 T007900-0  RH  057%=      5-min Rain = 0
KLE1 140304Z 09006KT 08/00 A3024 RMK A01 T007900-0  RH  057%=      5-min Rain = 0
KLE1 140305Z 09005KT 08/00 A3024 RMK A01 T00790000  RH  057%=      5-min Rain = 0
KLE1 140306Z 09006KT 08/00 A3024 RMK A01 T00790000  RH  057%=      5-min Rain = 0
KLE1 140307Z 09006KT 08/00 A3024 RMK A01 T007900-0  RH  057%=      5-min Rain = 0
KLE1 140308Z 09007KT 08/M00 A3024 RMK A01 T00781002  RH  057%=      5-min Rain = 0
KLE1 140309Z 08007KT 08/M00 A3024 RMK A01 T00771001  RH  058%=      5-min Rain = 0
KLE1 140310Z 08007KT 08/M00 A3024 RMK A01 T00761002  RH  058%=      5-min Rain = 0
KLE1 140311Z 09007KT 08/M00 A3024 RMK A01 T00751002  RH  058%=      5-min Rain = 0
KLE1 140312Z 08007KT 07/M00 A3024 RMK A01 T00741003  RH  058%=      5-min Rain = 0
KLE1 140313Z 08007KT 07/M00 A3024 RMK A01 T00731003  RH  059%=      5-min Rain = 0
KLE1 140314Z 08007KT 07/M00 A3024 RMK A01 T00721003  RH  059%=      5-min Rain = 0
KLE1 140315Z 09007KT 07/M00 A3024 RMK A01 T00721003  RH  059%=      5-min Rain = 0
KLE1 140316Z 09007KT 07/M00 A3024 RMK A01 T00711002  RH  059%=      5-min Rain = 0
KLE1 140317Z 09007KT 07/M00 A3024 RMK A01 T00711002  RH  060%=      5-min Rain = 0
KLE1 140318Z 09006KT 07/M00 A3024 RMK A01 T00721002  RH  060%=      5-min Rain = 0
KLE1 140319Z 09007KT 07/M00 A3024 RMK A01 T00721002  RH  060%=      5-min Rain = 0
KLE1 140320Z 09006KT 07/M00 A3024 RMK A01 T00721002  RH  059%=      5-min Rain = 0
KLE1 140321Z 09007KT 07/M00 A3024 RMK A01 T00721002  RH  059%=      5-min Rain = 0
KLE1 140322Z 08006KT 07/M00 A3024 RMK A01 T00711002  RH  060%=      5-min Rain = 0
KLE1 140323Z 08006KT 07/M00 A3024 RMK A01 T00711002  RH  060%=      5-min Rain = 0
KLE1 140324Z 08006KT 07/M00 A3024 RMK A01 T00701002  RH  060%=      5-min Rain = 0
KLE1 140325Z 08006KT 07/M00 A3024 RMK A01 T00701002  RH  060%=      5-min Rain = 0
KLE1 140326Z 08006KT 07/M00 A3024 RMK A01 T00701002  RH  060%=      5-min Rain = 0
KLE1 140327Z 08006KT 07/M00 A3024 RMK A01 T00701003  RH  060%=      5-min Rain = 0
KLE1 140328Z 08006KT 07/M00 A3024 RMK A01 T00691003  RH  060%=      5-min Rain = 0
KLE1 140329Z 09006KT 07/M00 A3024 RMK A01 T00691002  RH  060%=      5-min Rain = 0
KLE1 140330Z 09006KT 07/M00 A3024 RMK A01 T00691002  RH  061%=      5-min Rain = 0
KLE1 140331Z 09007KT 07/M00 A3024 RMK A01 T00691002  RH  061%=      5-min Rain = 0
KLE1 140332Z 09007KT 07/M00 A3024 RMK A01 T00681003  RH  061%=      5-min Rain = 0
KLE1 140333Z 09007KT 07/M00 A3024 RMK A01 T00671003  RH  061%=      5-min Rain = 0
KLE1 140334Z 09006KT 07/M00 A3024 RMK A01 T00671003  RH  061%=      5-min Rain = 0
KLE1 140335Z 08006KT 07/M00 A3024 RMK A01 T00661003  RH  061%=      5-min Rain = 0
KLE1 140336Z 08006KT 07/M00 A3024 RMK A01 T00661002  RH  062%=      5-min Rain = 0
KLE1 140337Z 08006KT 07/M00 A3024 RMK A01 T00661002  RH  062%=      5-min Rain = 0
KLE1 140338Z 08006KT 07/M00 A3024 RMK A01 T00651003  RH  062%=      5-min Rain = 0
KLE1 140339Z 08006KT 06/M00 A3024 RMK A01 T00641003  RH  062%=      5-min Rain = 0
KLE1 140340Z 07006KT 06/M00 A3024 RMK A01 T00641003  RH  062%=      5-min Rain = 0
KLE1 140341Z 07006KT 06/M00 A3024 RMK A01 T00641002  RH  063%=      5-min Rain = 0
KLE1 140342Z 07006KT 06/M00 A3024 RMK A01 T00631001  RH  063%=      5-min Rain = 0
KLE1 140343Z 07006KT 06/M00 A3024 RMK A01 T00631001  RH  063%=      5-min Rain = 0
KLE1 140344Z 07006KT 06/00 A3024 RMK A01 T006300-0  RH  064%=      5-min Rain = 0
KLE1 140345Z 08006KT 06/00 A3024 RMK A01 T006300-0  RH  064%=      5-min Rain = 0
KLE1 140346Z 08006KT 06/00 A3024 RMK A01 T006300-0  RH  064%=      5-min Rain = 0
KLE1 140347Z 08006KT 06/00 A3024 RMK A01 T00630000  RH  064%=      5-min Rain = 0
KLE1 140348Z 08007KT 06/00 A3024 RMK A01 T00630000  RH  064%=      5-min Rain = 0
KLE1 140349Z 09007KT 06/00 A3024 RMK A01 T00630001  RH  064%=      5-min Rain = 0
KLE1 140350Z 09006KT 06/00 A3024 RMK A01 T00630000  RH  064%=      5-min Rain = 0
KLE1 140351Z 08007KT 06/00 A3024 RMK A01 T006300-0  RH  064%=      5-min Rain = 0
KLE1 140352Z 09007KT 06/M00 A3024 RMK A01 T00621001  RH  064%=      5-min Rain = 0
KLE1 140353Z 09007KT 06/M00 A3024 RMK A01 T00611001  RH  064%=      5-min Rain = 0
KLE1 140354Z 09007KT 06/M00 A3024 RMK A01 T00611001  RH  065%=      5-min Rain = 0
KLE1 140355Z 09007KT 06/00 A3024 RMK A01 T00610000  RH  065%=      5-min Rain = 0
KLE1 140356Z 09007KT 06/00 A3024 RMK A01 T00600000  RH  065%=      5-min Rain = 0
KLE1 140357Z 09007KT 06/00 A3024 RMK A01 T00600000  RH  065%=      5-min Rain = 0
KLE1 140358Z 09007KT 06/00 A3024 RMK A01 T00600001  RH  066%=      5-min Rain = 0
KLE1 140359Z 09007KT 06/00 A3024 RMK A01 T00600001  RH  066%=      5-min Rain = 0
KLE1 140400Z 09007KT 06/00 A3024 RMK A01 T00600001  RH  066%=      5-min Rain = 0
KLE1 140401Z 09007KT 06/00 A3024 RMK A01 T00600001  RH  066%=      5-min Rain = 0
KLE1 140402Z 09007KT 06/00 A3024 RMK A01 T00590002  RH  067%=      5-min Rain = 0
KLE1 140403Z 09007KT 06/00 A3024 RMK A01 T00590002  RH  067%=      5-min Rain = 0
KLE1 140404Z 09007KT 06/00 A3024 RMK A01 T00600003  RH  067%=      5-min Rain = 0
KLE1 140405Z 08007KT 06/00 A3024 RMK A01 T00600003  RH  067%=      5-min Rain = 0
KLE1 140406Z 08007KT 06/00 A3024 RMK A01 T00590003  RH  067%=      5-min Rain = 0
KLE1 140407Z 08007KT 06/00 A3024 RMK A01 T00600004  RH  067%=      5-min Rain = 0
KLE1 140408Z 08007KT 06/00 A3024 RMK A01 T00600004  RH  067%=      5-min Rain = 0
KLE1 140409Z 08007KT 06/00 A3024 RMK A01 T00600004  RH  067%=      5-min Rain = 0
KLE1 140410Z 07007KT 06/00 A3024 RMK A01 T00590003  RH  067%=      5-min Rain = 0
KLE1 140411Z 08007KT 06/00 A3024 RMK A01 T00590003  RH  067%=      5-min Rain = 0
KLE1 140412Z 08007KT 06/00 A3024 RMK A01 T00580003  RH  068%=      5-min Rain = 0
KLE1 140413Z 08006KT 06/00 A3024 RMK A01 T00580004  RH  068%=      5-min Rain = 0
KLE1 140414Z 08006KT 06/00 A3024 RMK A01 T00580004  RH  068%=      5-min Rain = 0
KLE1 140415Z 08006KT 06/01 A3024 RMK A01 T00580005  RH  069%=      5-min Rain = 0
KLE1 140416Z 08007KT 06/01 A3024 RMK A01 T00590006  RH  068%=      5-min Rain = 0
KLE1 140417Z 09007KT 06/01 A3024 RMK A01 T00590006  RH  068%=      5-min Rain = 0
KLE1 140418Z 09007KT 06/01 A3024 RMK A01 T00590006  RH  068%=      5-min Rain = 0
KLE1 140419Z 09007KT 06/01 A3024 RMK A01 T00590006  RH  069%=      5-min Rain = 0
KLE1 140420Z 09007KT 06/01 A3024 RMK A01 T00590007  RH  069%=      5-min Rain = 0
KLE1 140421Z 09007KT 06/01 A3024 RMK A01 T00590007  RH  069%=      5-min Rain = 0
KLE1 140422Z 09007KT 06/01 A3024 RMK A01 T00590007  RH  069%=      5-min Rain = 0
KLE1 140423Z 09007KT 06/01 A3024 RMK A01 T00590007  RH  069%=      5-min Rain = 0
KLE1 140424Z 09007KT 06/01 A3024 RMK A01 T00580006  RH  069%=      5-min Rain = 0
KLE1 140425Z 09008KT 06/01 A3024 RMK A01 T00570006  RH  069%=      5-min Rain = 0
KLE1 140426Z 09008KT 06/01 A3024 RMK A01 T00570007  RH  070%=      5-min Rain = 0
KLE1 140427Z 10007KT 06/01 A3024 RMK A01 T00570007  RH  070%=      5-min Rain = 0
KLE1 140428Z 09007KT 06/01 A3024 RMK A01 T00570006  RH  070%=      5-min Rain = 0
KLE1 140429Z 10007KT 06/01 A3024 RMK A01 T00560006  RH  070%=      5-min Rain = 0
KLE1 140430Z 09007KT 06/01 A3024 RMK A01 T00560006  RH  070%=      5-min Rain = 0
KLE1 140431Z 09007KT 06/01 A3024 RMK A01 T00550007  RH  071%=      5-min Rain = 0
KLE1 140432Z 09007KT 06/01 A3024 RMK A01 T00560007  RH  071%=      5-min Rain = 0
KLE1 140433Z 10008KT 06/01 A3024 RMK A01 T00560007  RH  071%=      5-min Rain = 0
KLE1 140434Z 10008KT 06/01 A3024 RMK A01 T00550007  RH  071%=      5-min Rain = 0
KLE1 140435Z 10008KT 06/01 A3024 RMK A01 T00550008  RH  071%=      5-min Rain = 0
KLE1 140436Z 10008KT 06/01 A3024 RMK A01 T00560008  RH  071%=      5-min Rain = 0
KLE1 140437Z 10008KT 06/01 A3024 RMK A01 T00560008  RH  071%=      5-min Rain = 0
KLE1 140438Z 10007KT 06/01 A3024 RMK A01 T00560009  RH  071%=      5-min Rain = 0
KLE1 140439Z 10008KT 06/01 A3024 RMK A01 T00560009  RH  072%=      5-min Rain = 0
KLE1 140440Z 10007KT 06/01 A3024 RMK A01 T00560009  RH  072%=      5-min Rain = 0
KLE1 140441Z 09008KT 06/01 A3024 RMK A01 T00560008  RH  072%=      5-min Rain = 0
KLE1 140442Z 09007KT 06/01 A3024 RMK A01 T00560009  RH  072%=      5-min Rain = 0
KLE1 140443Z 09008KT 06/01 A3023 RMK A01 T00560009  RH  072%=      5-min Rain = 0
KLE1 140444Z 09008KT 06/01 A3024 RMK A01 T00560010  RH  072%=      5-min Rain = 0
KLE1 140445Z 09008KT 06/01 A3024 RMK A01 T00570010  RH  072%=      5-min Rain = 0
KLE1 140446Z 09008KT 06/01 A3024 RMK A01 T00570010  RH  072%=      5-min Rain = 0
KLE1 140447Z 09008KT 06/01 A3023 RMK A01 T00570010  RH  072%=      5-min Rain = 0
KLE1 140448Z 09008KT 06/01 A3023 RMK A01 T00570011  RH  072%=      5-min Rain = 0
KLE1 140449Z 09008KT 06/01 A3023 RMK A01 T00580011  RH  072%=      5-min Rain = 0
KLE1 140450Z 09008KT 06/01 A3023 RMK A01 T00580011  RH  072%=      5-min Rain = 0
KLE1 140451Z 10008KT 06/01 A3023 RMK A01 T00580012  RH  072%=      5-min Rain = 0
KLE1 140452Z 09008KT 06/01 A3023 RMK A01 T00580012  RH  072%=      5-min Rain = 0
KLE1 140453Z 10008KT 06/01 A3023 RMK A01 T00580012  RH  072%=      5-min Rain = 0
KLE1 140454Z 10007KT 06/01 A3023 RMK A01 T00590013  RH  072%=      5-min Rain = 0
KLE1 140455Z 10007KT 06/01 A3023 RMK A01 T00590013  RH  072%=      5-min Rain = 0
KLE1 140456Z 10007KT 06/01 A3023 RMK A01 T00600013  RH  072%=      5-min Rain = 0
KLE1 140457Z 10007KT 06/01 A3023 RMK A01 T00600013  RH  072%=      5-min Rain = 0
KLE1 140458Z 10008KT 06/01 A3023 RMK A01 T00600014  RH  072%=      5-min Rain = 0
KLE1 140459Z 10008KT 06/01 A3023 RMK A01 T00600014  RH  072%=      5-min Rain = 0
KLE1 140500Z 09008KT 06/01 A3023 RMK A01 T00600014  RH  072%=      5-min Rain = 0
KLE1 140501Z 09008KT 06/01 A3023 RMK A01 T00610014  RH  072%=      5-min Rain = 0
KLE1 140502Z 09008KT 06/01 A3023 RMK A01 T00610014  RH  072%=      5-min Rain = 0
KLE1 140503Z 09008KT 06/01 A3023 RMK A01 T00610014  RH  072%=      5-min Rain = 0
KLE1 140504Z 08008KT 06/01 A3023 RMK A01 T00600014  RH  072%=      5-min Rain = 0
KLE1 140505Z 08007KT 06/01 A3023 RMK A01 T00600014  RH  072%=      5-min Rain = 0
KLE1 140506Z 08007KT 06/02 A3023 RMK A01 T00600015  RH  073%=      5-min Rain = 0
KLE1 140507Z 08007KT 06/02 A3022 RMK A01 T00600015  RH  073%=      5-min Rain = 0
KLE1 140508Z 08007KT 06/02 A3022 RMK A01 T00600015  RH  073%=      5-min Rain = 0
KLE1 140509Z 08007KT 06/02 A3022 RMK A01 T00600016  RH  073%=      5-min Rain = 0
KLE1 140510Z 08007KT 06/02 A3022 RMK A01 T00600016  RH  073%=      5-min Rain = 0
KLE1 140511Z 08007KT 06/02 A3022 RMK A01 T00600016  RH  073%=      5-min Rain = 0
KLE1 140512Z 08007KT 06/02 A3022 RMK A01 T00610016  RH  073%=      5-min Rain = 0
KLE1 140513Z 08007KT 06/02 A3022 RMK A01 T00610017  RH  073%=      5-min Rain = 0
KLE1 140514Z 08007KT 06/02 A3022 RMK A01 T00620017  RH  073%=      5-min Rain = 0
KLE1 140515Z 09007KT 06/02 A3022 RMK A01 T00620017  RH  073%=      5-min Rain = 0
KLE1 140516Z 08007KT 06/02 A3022 RMK A01 T00620017  RH  073%=      5-min Rain = 0
KLE1 140517Z 08007KT 06/02 A3022 RMK A01 T00620016  RH  072%=      5-min Rain = 0
KLE1 140518Z 08007KT 06/02 A3022 RMK A01 T00610015  RH  072%=      5-min Rain = 0
KLE1 140519Z 08006KT 06/01 A3022 RMK A01 T00610014  RH  072%=      5-min Rain = 0
KLE1 140520Z 07006KT 06/01 A3022 RMK A01 T00600014  RH  072%=      5-min Rain = 0
KLE1 140521Z 07005KT 06/01 A3022 RMK A01 T00600014  RH  072%=      5-min Rain = 0
KLE1 140522Z 07005KT 06/01 A3023 RMK A01 T00600014  RH  073%=      5-min Rain = 0
KLE1 140523Z 07005KT 06/01 A3023 RMK A01 T00590014  RH  073%=      5-min Rain = 0
KLE1 140524Z 07005KT 06/01 A3023 RMK A01 T00590013  RH  073%=      5-min Rain = 0
KLE1 140525Z 07005KT 06/01 A3023 RMK A01 T00580013  RH  073%=      5-min Rain = 0
KLE1 140526Z 07006KT 06/01 A3023 RMK A01 T00580013  RH  073%=      5-min Rain = 0
KLE1 140527Z 07006KT 06/01 A3023 RMK A01 T00570013  RH  073%=      5-min Rain = 0
KLE1 140528Z 08006KT 06/01 A3022 RMK A01 T00570014  RH  073%=      5-min Rain = 0
KLE1 140529Z 08006KT 06/01 A3022 RMK A01 T00570014  RH  074%=      5-min Rain = 0
KLE1 140530Z 08006KT 06/01 A3022 RMK A01 T00570014  RH  074%=      5-min Rain = 0
KLE1 140531Z 08006KT 06/01 A3022 RMK A01 T00570014  RH  074%=      5-min Rain = 0
KLE1 140532Z 09006KT 06/01 A3022 RMK A01 T00560013  RH  074%=      5-min Rain = 0
KLE1 140533Z 09006KT 06/01 A3022 RMK A01 T00560013  RH  074%=      5-min Rain = 0
KLE1 140534Z 09006KT 06/01 A3022 RMK A01 T00560014  RH  074%=      5-min Rain = 0
KLE1 140535Z 09005KT 06/01 A3022 RMK A01 T00560014  RH  074%=      5-min Rain = 0
KLE1 140536Z 09005KT 06/01 A3022 RMK A01 T00560014  RH  074%=      5-min Rain = 0
KLE1 140537Z 09006KT 06/01 A3022 RMK A01 T00560014  RH  074%=      5-min Rain = 0
KLE1 140538Z 09006KT 06/02 A3022 RMK A01 T00560015  RH  075%=      5-min Rain = 0
KLE1 140539Z 09006KT 06/01 A3022 RMK A01 T00560014  RH  074%=      5-min Rain = 0
KLE1 140540Z 09005KT 06/01 A3022 RMK A01 T00560014  RH  074%=      5-min Rain = 0
KLE1 140541Z 09005KT 06/01 A3021 RMK A01 T00560014  RH  075%=      5-min Rain = 0
KLE1 140542Z 08005KT 06/01 A3021 RMK A01 T00550014  RH  074%=      5-min Rain = 0
KLE1 140543Z 07006KT 06/01 A3021 RMK A01 T00550013  RH  074%=      5-min Rain = 0
KLE1 140544Z 07006KT 05/01 A3021 RMK A01 T00540012  RH  075%=      5-min Rain = 0
KLE1 140545Z 06006KT 05/01 A3021 RMK A01 T00540013  RH  075%=      5-min Rain = 0
KLE1 140546Z 06007KT 05/01 A3021 RMK A01 T00540013  RH  075%=      5-min Rain = 0
KLE1 140547Z 06007KT 05/01 A3021 RMK A01 T00530013  RH  075%=      5-min Rain = 0
KLE1 140548Z 06007KT 05/01 A3021 RMK A01 T00530013  RH  075%=      5-min Rain = 0
KLE1 140549Z 06007KT 05/01 A3021 RMK A01 T00520013  RH  076%=      5-min Rain = 0
KLE1 140550Z 06007KT 05/01 A3021 RMK A01 T00520014  RH  076%=      5-min Rain = 0
KLE1 140551Z 07007KT 05/01 A3022 RMK A01 T00520014  RH  076%=      5-min Rain = 0
KLE1 140552Z 07007KT 05/02 A3022 RMK A01 T00530015  RH  076%=      5-min Rain = 0
KLE1 140553Z 08007KT 05/01 A3021 RMK A01 T00520014  RH  076%=      5-min Rain = 0
KLE1 140554Z 08007KT 05/01 A3021 RMK A01 T00520014  RH  076%=      5-min Rain = 0
KLE1 140555Z 08007KT 05/01 A3021 RMK A01 T00520014  RH  076%=      5-min Rain = 0
KLE1 140556Z 08007KT 05/01 A3021 RMK A01 T00520014  RH  076%=      5-min Rain = 0
KLE1 140557Z 08007KT 05/01 A3021 RMK A01 T00530014  RH  076%=      5-min Rain = 0
KLE1 140558Z 07006KT 05/01 A3021 RMK A01 T00520014  RH  076%=      5-min Rain = 0
KLE1 140559Z 07006KT 05/01 A3021 RMK A01 T00520014  RH  076%=      5-min Rain = 0

Page generated in 0.0328 seconds.